<?xml version="1.0" encoding="UTF-8" standalone="no" ?>
<gpx xmlns="http://www.topografix.com/GPX/1/1" xmlns:xsi="http://www.w3.org/2001/XMLSchema-instance" xsi:schemaLocation="http://www.topografix.com/GPX/1/1 http://www.topografix.com/GPX/1/1/gpx.xsd" version="1.1" creator="VisuGPX - https://www.visugpx.com">
  <metadata>
    <name>prepa ROC 2017</name>
    <desc><![CDATA[boucle pour la repap roc faite avec zef à st aygulf]]></desc>
  </metadata>
  <trk>
    <name><![CDATA[prepa ROC 2017_1]]></name>
    <trkseg>
      <trkpt lat="43.38642" lon="6.72207">
        <ele>21</ele>
        <time>2017-09-04T11:47:43Z</time>
      </trkpt>
      <trkpt lat="43.38658" lon="6.72203">
        <ele>21</ele>
        <time>2017-09-04T11:49:43Z</time>
      </trkpt>
      <trkpt lat="43.3873" lon="6.72198">
        <ele>22</ele>
        <time>2017-09-04T11:51:43Z</time>
      </trkpt>
      <trkpt lat="43.38788" lon="6.72188">
        <ele>22</ele>
        <time>2017-09-04T11:53:43Z</time>
      </trkpt>
      <trkpt lat="43.38847" lon="6.72177">
        <ele>21</ele>
        <time>2017-09-04T11:55:43Z</time>
      </trkpt>
      <trkpt lat="43.389" lon="6.72134">
        <ele>19</ele>
        <time>2017-09-04T11:57:43Z</time>
      </trkpt>
      <trkpt lat="43.38933" lon="6.7208">
        <ele>15</ele>
        <time>2017-09-04T11:59:43Z</time>
      </trkpt>
      <trkpt lat="43.3898" lon="6.72033">
        <ele>16</ele>
        <time>2017-09-04T12:01:43Z</time>
      </trkpt>
      <trkpt lat="43.3903" lon="6.71997">
        <ele>16</ele>
        <time>2017-09-04T12:03:43Z</time>
      </trkpt>
      <trkpt lat="43.39103" lon="6.7193">
        <ele>14</ele>
        <time>2017-09-04T12:05:43Z</time>
      </trkpt>
      <trkpt lat="43.39181" lon="6.71866">
        <ele>14</ele>
        <time>2017-09-04T12:07:43Z</time>
      </trkpt>
      <trkpt lat="43.3924" lon="6.71821">
        <ele>11</ele>
        <time>2017-09-04T12:09:43Z</time>
      </trkpt>
      <trkpt lat="43.3932" lon="6.71823">
        <ele>10</ele>
        <time>2017-09-04T12:11:43Z</time>
      </trkpt>
      <trkpt lat="43.39387" lon="6.71825">
        <ele>11</ele>
        <time>2017-09-04T12:13:43Z</time>
      </trkpt>
      <trkpt lat="43.39454" lon="6.71851">
        <ele>11</ele>
        <time>2017-09-04T12:15:43Z</time>
      </trkpt>
      <trkpt lat="43.3951" lon="6.71868">
        <ele>11</ele>
        <time>2017-09-04T12:17:43Z</time>
      </trkpt>
      <trkpt lat="43.39599" lon="6.71879">
        <ele>8</ele>
        <time>2017-09-04T12:19:43Z</time>
      </trkpt>
      <trkpt lat="43.39681" lon="6.71887">
        <ele>9</ele>
        <time>2017-09-04T12:21:43Z</time>
      </trkpt>
      <trkpt lat="43.39748" lon="6.71887">
        <ele>9</ele>
        <time>2017-09-04T12:23:43Z</time>
      </trkpt>
      <trkpt lat="43.39851" lon="6.71844">
        <ele>12</ele>
        <time>2017-09-04T12:25:43Z</time>
      </trkpt>
      <trkpt lat="43.39918" lon="6.71812">
        <ele>9</ele>
        <time>2017-09-04T12:27:43Z</time>
      </trkpt>
      <trkpt lat="43.39956" lon="6.71748">
        <ele>12</ele>
        <time>2017-09-04T12:29:43Z</time>
      </trkpt>
      <trkpt lat="43.39988" lon="6.71664">
        <ele>4</ele>
        <time>2017-09-04T12:31:43Z</time>
      </trkpt>
      <trkpt lat="43.40021" lon="6.71559">
        <ele>3</ele>
        <time>2017-09-04T12:33:43Z</time>
      </trkpt>
      <trkpt lat="43.40051" lon="6.71484">
        <ele>1</ele>
        <time>2017-09-04T12:35:43Z</time>
      </trkpt>
      <trkpt lat="43.40085" lon="6.714">
        <ele>1</ele>
        <time>2017-09-04T12:37:43Z</time>
      </trkpt>
      <trkpt lat="43.40141" lon="6.71297">
        <ele>2</ele>
        <time>2017-09-04T12:39:43Z</time>
      </trkpt>
      <trkpt lat="43.40216" lon="6.71226">
        <ele>3</ele>
        <time>2017-09-04T12:41:43Z</time>
      </trkpt>
      <trkpt lat="43.40289" lon="6.71162">
        <ele>6</ele>
        <time>2017-09-04T12:43:43Z</time>
      </trkpt>
      <trkpt lat="43.40366" lon="6.71121">
        <ele>9</ele>
        <time>2017-09-04T12:45:43Z</time>
      </trkpt>
      <trkpt lat="43.40452" lon="6.71076">
        <ele>8</ele>
        <time>2017-09-04T12:47:43Z</time>
      </trkpt>
      <trkpt lat="43.4052" lon="6.71042">
        <ele>6</ele>
        <time>2017-09-04T12:49:43Z</time>
      </trkpt>
      <trkpt lat="43.40604" lon="6.70997">
        <ele>7</ele>
        <time>2017-09-04T12:51:43Z</time>
      </trkpt>
      <trkpt lat="43.40703" lon="6.70941">
        <ele>4</ele>
        <time>2017-09-04T12:53:43Z</time>
      </trkpt>
      <trkpt lat="43.40805" lon="6.70889">
        <ele>4</ele>
        <time>2017-09-04T12:55:43Z</time>
      </trkpt>
      <trkpt lat="43.40946" lon="6.70825">
        <ele>4</ele>
        <time>2017-09-04T12:57:43Z</time>
      </trkpt>
      <trkpt lat="43.41044" lon="6.70778">
        <ele>11</ele>
        <time>2017-09-04T12:59:43Z</time>
      </trkpt>
      <trkpt lat="43.41136" lon="6.70735">
        <ele>6</ele>
        <time>2017-09-04T13:01:43Z</time>
      </trkpt>
      <trkpt lat="43.41198" lon="6.70668">
        <ele>15</ele>
        <time>2017-09-04T13:03:43Z</time>
      </trkpt>
      <trkpt lat="43.41248" lon="6.70561">
        <ele>6</ele>
        <time>2017-09-04T13:05:43Z</time>
      </trkpt>
      <trkpt lat="43.41307" lon="6.70439">
        <ele>6</ele>
        <time>2017-09-04T13:07:43Z</time>
      </trkpt>
      <trkpt lat="43.41343" lon="6.70319">
        <ele>11</ele>
        <time>2017-09-04T13:09:43Z</time>
      </trkpt>
      <trkpt lat="43.41317" lon="6.70173">
        <ele>7</ele>
        <time>2017-09-04T13:11:43Z</time>
      </trkpt>
      <trkpt lat="43.413" lon="6.70068">
        <ele>3</ele>
        <time>2017-09-04T13:13:43Z</time>
      </trkpt>
      <trkpt lat="43.41275" lon="6.69952">
        <ele>20</ele>
        <time>2017-09-04T13:15:43Z</time>
      </trkpt>
      <trkpt lat="43.41243" lon="6.69827">
        <ele>10</ele>
        <time>2017-09-04T13:17:43Z</time>
      </trkpt>
      <trkpt lat="43.41215" lon="6.69707">
        <ele>6</ele>
        <time>2017-09-04T13:19:43Z</time>
      </trkpt>
      <trkpt lat="43.41133" lon="6.69681">
        <ele>7</ele>
        <time>2017-09-04T13:21:43Z</time>
      </trkpt>
      <trkpt lat="43.41059" lon="6.69656">
        <ele>8</ele>
        <time>2017-09-04T13:23:43Z</time>
      </trkpt>
      <trkpt lat="43.40982" lon="6.69632">
        <ele>8</ele>
        <time>2017-09-04T13:25:43Z</time>
      </trkpt>
      <trkpt lat="43.40883" lon="6.69602">
        <ele>7</ele>
        <time>2017-09-04T13:27:43Z</time>
      </trkpt>
      <trkpt lat="43.40805" lon="6.69572">
        <ele>8</ele>
        <time>2017-09-04T13:29:43Z</time>
      </trkpt>
      <trkpt lat="43.40685" lon="6.69531">
        <ele>7</ele>
        <time>2017-09-04T13:31:43Z</time>
      </trkpt>
      <trkpt lat="43.40586" lon="6.69505">
        <ele>10</ele>
        <time>2017-09-04T13:33:43Z</time>
      </trkpt>
      <trkpt lat="43.40506" lon="6.6948">
        <ele>14</ele>
        <time>2017-09-04T13:35:43Z</time>
      </trkpt>
      <trkpt lat="43.40455" lon="6.69484">
        <ele>19</ele>
        <time>2017-09-04T13:37:43Z</time>
      </trkpt>
      <trkpt lat="43.40434" lon="6.69544">
        <ele>28</ele>
        <time>2017-09-04T13:39:43Z</time>
      </trkpt>
      <trkpt lat="43.40413" lon="6.69621">
        <ele>28</ele>
        <time>2017-09-04T13:41:43Z</time>
      </trkpt>
      <trkpt lat="43.40378" lon="6.69688">
        <ele>36</ele>
        <time>2017-09-04T13:43:43Z</time>
      </trkpt>
      <trkpt lat="43.40372" lon="6.69772">
        <ele>49</ele>
        <time>2017-09-04T13:45:43Z</time>
      </trkpt>
      <trkpt lat="43.40358" lon="6.69844">
        <ele>62</ele>
        <time>2017-09-04T13:47:43Z</time>
      </trkpt>
      <trkpt lat="43.40338" lon="6.6996">
        <ele>79</ele>
        <time>2017-09-04T13:49:43Z</time>
      </trkpt>
      <trkpt lat="43.40317" lon="6.70014">
        <ele>79</ele>
        <time>2017-09-04T13:51:43Z</time>
      </trkpt>
      <trkpt lat="43.40274" lon="6.6998">
        <ele>76</ele>
        <time>2017-09-04T13:53:43Z</time>
      </trkpt>
      <trkpt lat="43.40222" lon="6.69945">
        <ele>76</ele>
        <time>2017-09-04T13:55:43Z</time>
      </trkpt>
      <trkpt lat="43.40177" lon="6.6998">
        <ele>64</ele>
        <time>2017-09-04T13:57:43Z</time>
      </trkpt>
      <trkpt lat="43.40116" lon="6.7005">
        <ele>68</ele>
        <time>2017-09-04T13:59:43Z</time>
      </trkpt>
      <trkpt lat="43.40073" lon="6.70126">
        <ele>77</ele>
        <time>2017-09-04T14:01:43Z</time>
      </trkpt>
      <trkpt lat="43.40014" lon="6.70105">
        <ele>79</ele>
        <time>2017-09-04T14:03:43Z</time>
      </trkpt>
      <trkpt lat="43.39994" lon="6.70107">
        <ele>79</ele>
        <time>2017-09-04T14:05:43Z</time>
      </trkpt>
      <trkpt lat="43.39894" lon="6.70148">
        <ele>103</ele>
        <time>2017-09-04T14:07:43Z</time>
      </trkpt>
      <trkpt lat="43.39857" lon="6.70185">
        <ele>100</ele>
        <time>2017-09-04T14:09:43Z</time>
      </trkpt>
      <trkpt lat="43.39757" lon="6.70181">
        <ele>100</ele>
        <time>2017-09-04T14:11:43Z</time>
      </trkpt>
      <trkpt lat="43.39689" lon="6.70156">
        <ele>102</ele>
        <time>2017-09-04T14:13:43Z</time>
      </trkpt>
      <trkpt lat="43.39651" lon="6.70116">
        <ele>99</ele>
        <time>2017-09-04T14:15:43Z</time>
      </trkpt>
      <trkpt lat="43.39635" lon="6.70082">
        <ele>99</ele>
        <time>2017-09-04T14:17:43Z</time>
      </trkpt>
      <trkpt lat="43.39619" lon="6.70065">
        <ele>110</ele>
        <time>2017-09-04T14:19:43Z</time>
      </trkpt>
      <trkpt lat="43.3959" lon="6.70067">
        <ele>110</ele>
        <time>2017-09-04T14:21:43Z</time>
      </trkpt>
      <trkpt lat="43.39516" lon="6.70106">
        <ele>104</ele>
        <time>2017-09-04T14:23:43Z</time>
      </trkpt>
      <trkpt lat="43.3948" lon="6.70109">
        <ele>104</ele>
        <time>2017-09-04T14:25:43Z</time>
      </trkpt>
      <trkpt lat="43.39405" lon="6.70096">
        <ele>101</ele>
        <time>2017-09-04T14:27:43Z</time>
      </trkpt>
      <trkpt lat="43.39352" lon="6.70059">
        <ele>102</ele>
        <time>2017-09-04T14:29:43Z</time>
      </trkpt>
      <trkpt lat="43.39262" lon="6.69944">
        <ele>100</ele>
        <time>2017-09-04T14:31:43Z</time>
      </trkpt>
      <trkpt lat="43.39218" lon="6.69923">
        <ele>100</ele>
        <time>2017-09-04T14:33:43Z</time>
      </trkpt>
      <trkpt lat="43.39186" lon="6.69876">
        <ele>100</ele>
        <time>2017-09-04T14:35:43Z</time>
      </trkpt>
      <trkpt lat="43.39138" lon="6.69833">
        <ele>109</ele>
        <time>2017-09-04T14:37:43Z</time>
      </trkpt>
      <trkpt lat="43.39133" lon="6.69807">
        <ele>109</ele>
        <time>2017-09-04T14:39:43Z</time>
      </trkpt>
      <trkpt lat="43.39132" lon="6.69712">
        <ele>117</ele>
        <time>2017-09-04T14:41:43Z</time>
      </trkpt>
      <trkpt lat="43.39083" lon="6.69542">
        <ele>136</ele>
        <time>2017-09-04T14:43:43Z</time>
      </trkpt>
      <trkpt lat="43.38987" lon="6.6947">
        <ele>150</ele>
        <time>2017-09-04T14:45:43Z</time>
      </trkpt>
      <trkpt lat="43.38967" lon="6.69441">
        <ele>162</ele>
        <time>2017-09-04T14:47:43Z</time>
      </trkpt>
      <trkpt lat="43.38938" lon="6.69353">
        <ele>176</ele>
        <time>2017-09-04T14:49:43Z</time>
      </trkpt>
      <trkpt lat="43.38917" lon="6.69316">
        <ele>176</ele>
        <time>2017-09-04T14:51:43Z</time>
      </trkpt>
      <trkpt lat="43.38831" lon="6.69266">
        <ele>195</ele>
        <time>2017-09-04T14:53:43Z</time>
      </trkpt>
      <trkpt lat="43.388" lon="6.69219">
        <ele>195</ele>
        <time>2017-09-04T14:55:43Z</time>
      </trkpt>
      <trkpt lat="43.38719" lon="6.69143">
        <ele>210</ele>
        <time>2017-09-04T14:57:43Z</time>
      </trkpt>
      <trkpt lat="43.38715" lon="6.69132">
        <ele>210</ele>
        <time>2017-09-04T14:59:43Z</time>
      </trkpt>
      <trkpt lat="43.38719" lon="6.69124">
        <ele>222</ele>
        <time>2017-09-04T15:01:43Z</time>
      </trkpt>
      <trkpt lat="43.38743" lon="6.69104">
        <ele>222</ele>
        <time>2017-09-04T15:03:43Z</time>
      </trkpt>
      <trkpt lat="43.38809" lon="6.69138">
        <ele>212</ele>
        <time>2017-09-04T15:05:43Z</time>
      </trkpt>
      <trkpt lat="43.3882" lon="6.69137">
        <ele>212</ele>
        <time>2017-09-04T15:07:43Z</time>
      </trkpt>
      <trkpt lat="43.38925" lon="6.69054">
        <ele>207</ele>
        <time>2017-09-04T15:09:43Z</time>
      </trkpt>
      <trkpt lat="43.39044" lon="6.69018">
        <ele>178</ele>
        <time>2017-09-04T15:11:43Z</time>
      </trkpt>
      <trkpt lat="43.391" lon="6.68979">
        <ele>178</ele>
        <time>2017-09-04T15:13:43Z</time>
      </trkpt>
      <trkpt lat="43.39116" lon="6.6895">
        <ele>178</ele>
        <time>2017-09-04T15:15:43Z</time>
      </trkpt>
      <trkpt lat="43.39152" lon="6.68948">
        <ele>160</ele>
        <time>2017-09-04T15:17:43Z</time>
      </trkpt>
      <trkpt lat="43.39189" lon="6.6892">
        <ele>160</ele>
        <time>2017-09-04T15:19:43Z</time>
      </trkpt>
      <trkpt lat="43.39281" lon="6.6892">
        <ele>149</ele>
        <time>2017-09-04T15:21:43Z</time>
      </trkpt>
      <trkpt lat="43.3934" lon="6.68885">
        <ele>134</ele>
        <time>2017-09-04T15:23:43Z</time>
      </trkpt>
      <trkpt lat="43.39447" lon="6.68926">
        <ele>123</ele>
        <time>2017-09-04T15:25:43Z</time>
      </trkpt>
      <trkpt lat="43.39518" lon="6.68865">
        <ele>111</ele>
        <time>2017-09-04T15:27:43Z</time>
      </trkpt>
      <trkpt lat="43.39534" lon="6.68834">
        <ele>111</ele>
        <time>2017-09-04T15:29:43Z</time>
      </trkpt>
      <trkpt lat="43.39534" lon="6.68816">
        <ele>111</ele>
        <time>2017-09-04T15:31:43Z</time>
      </trkpt>
      <trkpt lat="43.39518" lon="6.68785">
        <ele>101</ele>
        <time>2017-09-04T15:33:43Z</time>
      </trkpt>
      <trkpt lat="43.39479" lon="6.68739">
        <ele>101</ele>
        <time>2017-09-04T15:35:43Z</time>
      </trkpt>
      <trkpt lat="43.39465" lon="6.6869">
        <ele>91</ele>
        <time>2017-09-04T15:37:43Z</time>
      </trkpt>
      <trkpt lat="43.39481" lon="6.68544">
        <ele>88</ele>
        <time>2017-09-04T15:39:43Z</time>
      </trkpt>
      <trkpt lat="43.39477" lon="6.6853">
        <ele>88</ele>
        <time>2017-09-04T15:41:43Z</time>
      </trkpt>
      <trkpt lat="43.39437" lon="6.68512">
        <ele>84</ele>
        <time>2017-09-04T15:43:43Z</time>
      </trkpt>
      <trkpt lat="43.39403" lon="6.68472">
        <ele>84</ele>
        <time>2017-09-04T15:45:43Z</time>
      </trkpt>
      <trkpt lat="43.39366" lon="6.68407">
        <ele>75</ele>
        <time>2017-09-04T15:47:43Z</time>
      </trkpt>
      <trkpt lat="43.39348" lon="6.68342">
        <ele>69</ele>
        <time>2017-09-04T15:49:43Z</time>
      </trkpt>
      <trkpt lat="43.3934" lon="6.6833">
        <ele>69</ele>
        <time>2017-09-04T15:51:43Z</time>
      </trkpt>
      <trkpt lat="43.3931" lon="6.68332">
        <ele>69</ele>
        <time>2017-09-04T15:53:43Z</time>
      </trkpt>
      <trkpt lat="43.39307" lon="6.6832">
        <ele>69</ele>
        <time>2017-09-04T15:55:43Z</time>
      </trkpt>
      <trkpt lat="43.39317" lon="6.68289">
        <ele>68</ele>
        <time>2017-09-04T15:57:43Z</time>
      </trkpt>
      <trkpt lat="43.39314" lon="6.68274">
        <ele>68</ele>
        <time>2017-09-04T15:59:43Z</time>
      </trkpt>
      <trkpt lat="43.3928" lon="6.68243">
        <ele>81</ele>
        <time>2017-09-04T16:01:43Z</time>
      </trkpt>
      <trkpt lat="43.39273" lon="6.68208">
        <ele>77</ele>
        <time>2017-09-04T16:03:43Z</time>
      </trkpt>
      <trkpt lat="43.39301" lon="6.68136">
        <ele>71</ele>
        <time>2017-09-04T16:05:43Z</time>
      </trkpt>
      <trkpt lat="43.39328" lon="6.68091">
        <ele>77</ele>
        <time>2017-09-04T16:07:43Z</time>
      </trkpt>
      <trkpt lat="43.39335" lon="6.68009">
        <ele>76</ele>
        <time>2017-09-04T16:09:43Z</time>
      </trkpt>
      <trkpt lat="43.3933" lon="6.67968">
        <ele>76</ele>
        <time>2017-09-04T16:11:43Z</time>
      </trkpt>
      <trkpt lat="43.393" lon="6.67879">
        <ele>67</ele>
        <time>2017-09-04T16:13:43Z</time>
      </trkpt>
      <trkpt lat="43.393" lon="6.67869">
        <ele>51</ele>
        <time>2017-09-04T16:15:43Z</time>
      </trkpt>
      <trkpt lat="43.39318" lon="6.67844">
        <ele>51</ele>
        <time>2017-09-04T16:17:43Z</time>
      </trkpt>
      <trkpt lat="43.39319" lon="6.67823">
        <ele>51</ele>
        <time>2017-09-04T16:19:43Z</time>
      </trkpt>
      <trkpt lat="43.39309" lon="6.67807">
        <ele>51</ele>
        <time>2017-09-04T16:21:43Z</time>
      </trkpt>
      <trkpt lat="43.3931" lon="6.6779">
        <ele>38</ele>
        <time>2017-09-04T16:23:43Z</time>
      </trkpt>
      <trkpt lat="43.39325" lon="6.67779">
        <ele>38</ele>
        <time>2017-09-04T16:25:43Z</time>
      </trkpt>
      <trkpt lat="43.39333" lon="6.67753">
        <ele>38</ele>
        <time>2017-09-04T16:27:43Z</time>
      </trkpt>
      <trkpt lat="43.39322" lon="6.6772">
        <ele>38</ele>
        <time>2017-09-04T16:29:43Z</time>
      </trkpt>
      <trkpt lat="43.39288" lon="6.67695">
        <ele>21</ele>
        <time>2017-09-04T16:31:43Z</time>
      </trkpt>
      <trkpt lat="43.39267" lon="6.67664">
        <ele>21</ele>
        <time>2017-09-04T16:33:43Z</time>
      </trkpt>
      <trkpt lat="43.39224" lon="6.67667">
        <ele>21</ele>
        <time>2017-09-04T16:35:43Z</time>
      </trkpt>
      <trkpt lat="43.39225" lon="6.67651">
        <ele>21</ele>
        <time>2017-09-04T16:37:43Z</time>
      </trkpt>
      <trkpt lat="43.39216" lon="6.67637">
        <ele>21</ele>
        <time>2017-09-04T16:39:43Z</time>
      </trkpt>
      <trkpt lat="43.39225" lon="6.67626">
        <ele>21</ele>
        <time>2017-09-04T16:41:43Z</time>
      </trkpt>
      <trkpt lat="43.3928" lon="6.67616">
        <ele>28</ele>
        <time>2017-09-04T16:43:43Z</time>
      </trkpt>
      <trkpt lat="43.3934" lon="6.67612">
        <ele>26</ele>
        <time>2017-09-04T16:45:43Z</time>
      </trkpt>
      <trkpt lat="43.39402" lon="6.67571">
        <ele>20</ele>
        <time>2017-09-04T16:47:43Z</time>
      </trkpt>
      <trkpt lat="43.39448" lon="6.67577">
        <ele>20</ele>
        <time>2017-09-04T16:49:43Z</time>
      </trkpt>
      <trkpt lat="43.39491" lon="6.6755">
        <ele>19</ele>
        <time>2017-09-04T16:51:43Z</time>
      </trkpt>
      <trkpt lat="43.39514" lon="6.6755">
        <ele>19</ele>
        <time>2017-09-04T16:53:43Z</time>
      </trkpt>
      <trkpt lat="43.39547" lon="6.67513">
        <ele>17</ele>
        <time>2017-09-04T16:55:43Z</time>
      </trkpt>
      <trkpt lat="43.396" lon="6.67489">
        <ele>17</ele>
        <time>2017-09-04T16:57:43Z</time>
      </trkpt>
      <trkpt lat="43.39684" lon="6.67471">
        <ele>14</ele>
        <time>2017-09-04T16:59:43Z</time>
      </trkpt>
      <trkpt lat="43.39703" lon="6.67473">
        <ele>14</ele>
        <time>2017-09-04T17:01:43Z</time>
      </trkpt>
      <trkpt lat="43.39716" lon="6.67489">
        <ele>16</ele>
        <time>2017-09-04T17:03:43Z</time>
      </trkpt>
      <trkpt lat="43.39731" lon="6.67486">
        <ele>16</ele>
        <time>2017-09-04T17:05:43Z</time>
      </trkpt>
      <trkpt lat="43.39748" lon="6.67323">
        <ele>15</ele>
        <time>2017-09-04T17:07:43Z</time>
      </trkpt>
      <trkpt lat="43.39729" lon="6.67261">
        <ele>18</ele>
        <time>2017-09-04T17:09:43Z</time>
      </trkpt>
      <trkpt lat="43.39662" lon="6.67199">
        <ele>15</ele>
        <time>2017-09-04T17:11:43Z</time>
      </trkpt>
      <trkpt lat="43.39588" lon="6.67224">
        <ele>19</ele>
        <time>2017-09-04T17:13:43Z</time>
      </trkpt>
      <trkpt lat="43.39565" lon="6.67217">
        <ele>19</ele>
        <time>2017-09-04T17:15:43Z</time>
      </trkpt>
      <trkpt lat="43.39532" lon="6.67159">
        <ele>20</ele>
        <time>2017-09-04T17:17:43Z</time>
      </trkpt>
      <trkpt lat="43.39505" lon="6.67138">
        <ele>20</ele>
        <time>2017-09-04T17:19:43Z</time>
      </trkpt>
      <trkpt lat="43.39481" lon="6.67103">
        <ele>15</ele>
        <time>2017-09-04T17:21:43Z</time>
      </trkpt>
      <trkpt lat="43.39452" lon="6.67085">
        <ele>18</ele>
        <time>2017-09-04T17:23:43Z</time>
      </trkpt>
      <trkpt lat="43.39394" lon="6.66975">
        <ele>20</ele>
        <time>2017-09-04T17:25:43Z</time>
      </trkpt>
      <trkpt lat="43.39282" lon="6.66877">
        <ele>21</ele>
        <time>2017-09-04T17:27:43Z</time>
      </trkpt>
      <trkpt lat="43.39272" lon="6.66849">
        <ele>20</ele>
        <time>2017-09-04T17:29:43Z</time>
      </trkpt>
      <trkpt lat="43.39273" lon="6.66803">
        <ele>20</ele>
        <time>2017-09-04T17:31:43Z</time>
      </trkpt>
      <trkpt lat="43.39301" lon="6.66739">
        <ele>29</ele>
        <time>2017-09-04T17:33:43Z</time>
      </trkpt>
      <trkpt lat="43.39341" lon="6.6657">
        <ele>32</ele>
        <time>2017-09-04T17:35:43Z</time>
      </trkpt>
      <trkpt lat="43.39343" lon="6.66535">
        <ele>33</ele>
        <time>2017-09-04T17:37:43Z</time>
      </trkpt>
      <trkpt lat="43.39365" lon="6.66498">
        <ele>33</ele>
        <time>2017-09-04T17:39:43Z</time>
      </trkpt>
      <trkpt lat="43.39527" lon="6.66436">
        <ele>41</ele>
        <time>2017-09-04T17:41:43Z</time>
      </trkpt>
      <trkpt lat="43.39597" lon="6.66441">
        <ele>49</ele>
        <time>2017-09-04T17:43:43Z</time>
      </trkpt>
      <trkpt lat="43.39668" lon="6.66416">
        <ele>58</ele>
        <time>2017-09-04T17:45:43Z</time>
      </trkpt>
      <trkpt lat="43.39682" lon="6.66422">
        <ele>58</ele>
        <time>2017-09-04T17:47:43Z</time>
      </trkpt>
      <trkpt lat="43.39699" lon="6.66446">
        <ele>58</ele>
        <time>2017-09-04T17:49:43Z</time>
      </trkpt>
      <trkpt lat="43.397" lon="6.66404">
        <ele>58</ele>
        <time>2017-09-04T17:51:43Z</time>
      </trkpt>
      <trkpt lat="43.39711" lon="6.66387">
        <ele>65</ele>
        <time>2017-09-04T17:53:43Z</time>
      </trkpt>
      <trkpt lat="43.39775" lon="6.66406">
        <ele>65</ele>
        <time>2017-09-04T17:55:43Z</time>
      </trkpt>
      <trkpt lat="43.39793" lon="6.66384">
        <ele>65</ele>
        <time>2017-09-04T17:57:43Z</time>
      </trkpt>
      <trkpt lat="43.398" lon="6.66323">
        <ele>72</ele>
        <time>2017-09-04T17:59:43Z</time>
      </trkpt>
      <trkpt lat="43.39774" lon="6.66286">
        <ele>78</ele>
        <time>2017-09-04T18:01:43Z</time>
      </trkpt>
      <trkpt lat="43.39767" lon="6.66265">
        <ele>78</ele>
        <time>2017-09-04T18:03:43Z</time>
      </trkpt>
      <trkpt lat="43.39789" lon="6.66261">
        <ele>78</ele>
        <time>2017-09-04T18:05:43Z</time>
      </trkpt>
      <trkpt lat="43.39771" lon="6.66209">
        <ele>78</ele>
        <time>2017-09-04T18:07:43Z</time>
      </trkpt>
      <trkpt lat="43.39808" lon="6.662">
        <ele>95</ele>
        <time>2017-09-04T18:09:43Z</time>
      </trkpt>
      <trkpt lat="43.39845" lon="6.66137">
        <ele>95</ele>
        <time>2017-09-04T18:11:43Z</time>
      </trkpt>
      <trkpt lat="43.39876" lon="6.66101">
        <ele>98</ele>
        <time>2017-09-04T18:13:43Z</time>
      </trkpt>
      <trkpt lat="43.39898" lon="6.66048">
        <ele>98</ele>
        <time>2017-09-04T18:15:43Z</time>
      </trkpt>
      <trkpt lat="43.39915" lon="6.65975">
        <ele>109</ele>
        <time>2017-09-04T18:17:43Z</time>
      </trkpt>
      <trkpt lat="43.39908" lon="6.65843">
        <ele>122</ele>
        <time>2017-09-04T18:19:43Z</time>
      </trkpt>
      <trkpt lat="43.40007" lon="6.6577">
        <ele>132</ele>
        <time>2017-09-04T18:21:43Z</time>
      </trkpt>
      <trkpt lat="43.40026" lon="6.65715">
        <ele>132</ele>
        <time>2017-09-04T18:23:43Z</time>
      </trkpt>
      <trkpt lat="43.40033" lon="6.65665">
        <ele>139</ele>
        <time>2017-09-04T18:25:43Z</time>
      </trkpt>
      <trkpt lat="43.4002" lon="6.65563">
        <ele>143</ele>
        <time>2017-09-04T18:27:43Z</time>
      </trkpt>
      <trkpt lat="43.40005" lon="6.65522">
        <ele>153</ele>
        <time>2017-09-04T18:29:43Z</time>
      </trkpt>
      <trkpt lat="43.39981" lon="6.655">
        <ele>153</ele>
        <time>2017-09-04T18:31:43Z</time>
      </trkpt>
      <trkpt lat="43.39917" lon="6.65468">
        <ele>149</ele>
        <time>2017-09-04T18:33:43Z</time>
      </trkpt>
      <trkpt lat="43.39897" lon="6.65443">
        <ele>164</ele>
        <time>2017-09-04T18:35:43Z</time>
      </trkpt>
      <trkpt lat="43.3988" lon="6.65352">
        <ele>179</ele>
        <time>2017-09-04T18:37:43Z</time>
      </trkpt>
      <trkpt lat="43.39835" lon="6.65326">
        <ele>167</ele>
        <time>2017-09-04T18:39:43Z</time>
      </trkpt>
      <trkpt lat="43.39813" lon="6.65292">
        <ele>167</ele>
        <time>2017-09-04T18:41:43Z</time>
      </trkpt>
      <trkpt lat="43.39795" lon="6.65297">
        <ele>167</ele>
        <time>2017-09-04T18:43:43Z</time>
      </trkpt>
      <trkpt lat="43.39783" lon="6.65315">
        <ele>177</ele>
        <time>2017-09-04T18:45:43Z</time>
      </trkpt>
      <trkpt lat="43.39727" lon="6.65354">
        <ele>177</ele>
        <time>2017-09-04T18:47:43Z</time>
      </trkpt>
      <trkpt lat="43.39699" lon="6.65394">
        <ele>174</ele>
        <time>2017-09-04T18:49:43Z</time>
      </trkpt>
      <trkpt lat="43.39668" lon="6.65408">
        <ele>174</ele>
        <time>2017-09-04T18:51:43Z</time>
      </trkpt>
      <trkpt lat="43.39651" lon="6.65399">
        <ele>174</ele>
        <time>2017-09-04T18:53:43Z</time>
      </trkpt>
      <trkpt lat="43.39563" lon="6.65307">
        <ele>180</ele>
        <time>2017-09-04T18:55:43Z</time>
      </trkpt>
      <trkpt lat="43.39456" lon="6.65234">
        <ele>182</ele>
        <time>2017-09-04T18:57:43Z</time>
      </trkpt>
      <trkpt lat="43.39457" lon="6.65221">
        <ele>182</ele>
        <time>2017-09-04T18:59:43Z</time>
      </trkpt>
      <trkpt lat="43.39537" lon="6.6521">
        <ele>189</ele>
        <time>2017-09-04T19:01:43Z</time>
      </trkpt>
      <trkpt lat="43.39592" lon="6.65214">
        <ele>201</ele>
        <time>2017-09-04T19:03:43Z</time>
      </trkpt>
      <trkpt lat="43.39643" lon="6.652">
        <ele>225</ele>
        <time>2017-09-04T19:05:43Z</time>
      </trkpt>
      <trkpt lat="43.39656" lon="6.65184">
        <ele>225</ele>
        <time>2017-09-04T19:07:43Z</time>
      </trkpt>
      <trkpt lat="43.39713" lon="6.65045">
        <ele>228</ele>
        <time>2017-09-04T19:09:43Z</time>
      </trkpt>
      <trkpt lat="43.39775" lon="6.65008">
        <ele>245</ele>
        <time>2017-09-04T19:11:43Z</time>
      </trkpt>
      <trkpt lat="43.39844" lon="6.64991">
        <ele>252</ele>
        <time>2017-09-04T19:13:43Z</time>
      </trkpt>
      <trkpt lat="43.39867" lon="6.64971">
        <ele>252</ele>
        <time>2017-09-04T19:15:43Z</time>
      </trkpt>
      <trkpt lat="43.39938" lon="6.64935">
        <ele>277</ele>
        <time>2017-09-04T19:17:43Z</time>
      </trkpt>
      <trkpt lat="43.39992" lon="6.64941">
        <ele>292</ele>
        <time>2017-09-04T19:19:43Z</time>
      </trkpt>
      <trkpt lat="43.40032" lon="6.64929">
        <ele>292</ele>
        <time>2017-09-04T19:21:43Z</time>
      </trkpt>
      <trkpt lat="43.40055" lon="6.64898">
        <ele>295</ele>
        <time>2017-09-04T19:23:43Z</time>
      </trkpt>
      <trkpt lat="43.40103" lon="6.64867">
        <ele>314</ele>
        <time>2017-09-04T19:25:43Z</time>
      </trkpt>
      <trkpt lat="43.40126" lon="6.64836">
        <ele>293</ele>
        <time>2017-09-04T19:27:43Z</time>
      </trkpt>
      <trkpt lat="43.4015" lon="6.64796">
        <ele>293</ele>
        <time>2017-09-04T19:29:43Z</time>
      </trkpt>
      <trkpt lat="43.40185" lon="6.64764">
        <ele>311</ele>
        <time>2017-09-04T19:31:43Z</time>
      </trkpt>
      <trkpt lat="43.40313" lon="6.6474">
        <ele>299</ele>
        <time>2017-09-04T19:33:43Z</time>
      </trkpt>
      <trkpt lat="43.40338" lon="6.6474">
        <ele>299</ele>
        <time>2017-09-04T19:35:43Z</time>
      </trkpt>
      <trkpt lat="43.40416" lon="6.6477">
        <ele>300</ele>
        <time>2017-09-04T19:37:43Z</time>
      </trkpt>
      <trkpt lat="43.40633" lon="6.64811">
        <ele>287</ele>
        <time>2017-09-04T19:39:43Z</time>
      </trkpt>
      <trkpt lat="43.40726" lon="6.64841">
        <ele>300</ele>
        <time>2017-09-04T19:41:43Z</time>
      </trkpt>
      <trkpt lat="43.40741" lon="6.64854">
        <ele>300</ele>
        <time>2017-09-04T19:43:43Z</time>
      </trkpt>
      <trkpt lat="43.40775" lon="6.64912">
        <ele>289</ele>
        <time>2017-09-04T19:45:43Z</time>
      </trkpt>
      <trkpt lat="43.40785" lon="6.64954">
        <ele>289</ele>
        <time>2017-09-04T19:47:43Z</time>
      </trkpt>
      <trkpt lat="43.40799" lon="6.6516">
        <ele>304</ele>
        <time>2017-09-04T19:49:43Z</time>
      </trkpt>
      <trkpt lat="43.40821" lon="6.65191">
        <ele>304</ele>
        <time>2017-09-04T19:51:43Z</time>
      </trkpt>
      <trkpt lat="43.40863" lon="6.65192">
        <ele>304</ele>
        <time>2017-09-04T19:53:43Z</time>
      </trkpt>
      <trkpt lat="43.40899" lon="6.65227">
        <ele>302</ele>
        <time>2017-09-04T19:55:43Z</time>
      </trkpt>
      <trkpt lat="43.40986" lon="6.65269">
        <ele>309</ele>
        <time>2017-09-04T19:57:43Z</time>
      </trkpt>
      <trkpt lat="43.41051" lon="6.65321">
        <ele>281</ele>
        <time>2017-09-04T19:59:43Z</time>
      </trkpt>
      <trkpt lat="43.41109" lon="6.653">
        <ele>281</ele>
        <time>2017-09-04T20:01:43Z</time>
      </trkpt>
      <trkpt lat="43.41139" lon="6.65264">
        <ele>279</ele>
        <time>2017-09-04T20:03:43Z</time>
      </trkpt>
      <trkpt lat="43.41206" lon="6.65223">
        <ele>279</ele>
        <time>2017-09-04T20:05:43Z</time>
      </trkpt>
      <trkpt lat="43.41228" lon="6.65255">
        <ele>256</ele>
        <time>2017-09-04T20:07:43Z</time>
      </trkpt>
      <trkpt lat="43.41244" lon="6.65306">
        <ele>245</ele>
        <time>2017-09-04T20:09:43Z</time>
      </trkpt>
      <trkpt lat="43.41268" lon="6.65353">
        <ele>245</ele>
        <time>2017-09-04T20:11:43Z</time>
      </trkpt>
      <trkpt lat="43.41296" lon="6.65375">
        <ele>222</ele>
        <time>2017-09-04T20:13:43Z</time>
      </trkpt>
      <trkpt lat="43.41348" lon="6.65447">
        <ele>223</ele>
        <time>2017-09-04T20:15:43Z</time>
      </trkpt>
      <trkpt lat="43.41361" lon="6.65474">
        <ele>211</ele>
        <time>2017-09-04T20:17:43Z</time>
      </trkpt>
      <trkpt lat="43.41372" lon="6.65526">
        <ele>211</ele>
        <time>2017-09-04T20:19:43Z</time>
      </trkpt>
      <trkpt lat="43.41403" lon="6.65583">
        <ele>196</ele>
        <time>2017-09-04T20:21:43Z</time>
      </trkpt>
      <trkpt lat="43.41402" lon="6.65592">
        <ele>196</ele>
        <time>2017-09-04T20:23:43Z</time>
      </trkpt>
      <trkpt lat="43.41411" lon="6.65623">
        <ele>196</ele>
        <time>2017-09-04T20:25:43Z</time>
      </trkpt>
      <trkpt lat="43.41408" lon="6.657">
        <ele>177</ele>
        <time>2017-09-04T20:27:43Z</time>
      </trkpt>
      <trkpt lat="43.41394" lon="6.6578">
        <ele>160</ele>
        <time>2017-09-04T20:29:43Z</time>
      </trkpt>
      <trkpt lat="43.414" lon="6.65851">
        <ele>143</ele>
        <time>2017-09-04T20:31:43Z</time>
      </trkpt>
      <trkpt lat="43.41417" lon="6.65886">
        <ele>127</ele>
        <time>2017-09-04T20:33:43Z</time>
      </trkpt>
      <trkpt lat="43.41443" lon="6.65892">
        <ele>127</ele>
        <time>2017-09-04T20:35:43Z</time>
      </trkpt>
      <trkpt lat="43.41458" lon="6.65927">
        <ele>127</ele>
        <time>2017-09-04T20:37:43Z</time>
      </trkpt>
      <trkpt lat="43.41466" lon="6.65966">
        <ele>115</ele>
        <time>2017-09-04T20:39:43Z</time>
      </trkpt>
      <trkpt lat="43.41443" lon="6.65991">
        <ele>109</ele>
        <time>2017-09-04T20:41:43Z</time>
      </trkpt>
      <trkpt lat="43.41387" lon="6.66015">
        <ele>109</ele>
        <time>2017-09-04T20:43:43Z</time>
      </trkpt>
      <trkpt lat="43.41355" lon="6.66051">
        <ele>93</ele>
        <time>2017-09-04T20:45:43Z</time>
      </trkpt>
      <trkpt lat="43.4136" lon="6.6609">
        <ele>93</ele>
        <time>2017-09-04T20:47:43Z</time>
      </trkpt>
      <trkpt lat="43.41353" lon="6.66111">
        <ele>93</ele>
        <time>2017-09-04T20:49:43Z</time>
      </trkpt>
      <trkpt lat="43.41305" lon="6.66147">
        <ele>85</ele>
        <time>2017-09-04T20:51:43Z</time>
      </trkpt>
      <trkpt lat="43.41261" lon="6.66209">
        <ele>80</ele>
        <time>2017-09-04T20:53:43Z</time>
      </trkpt>
      <trkpt lat="43.41269" lon="6.66246">
        <ele>80</ele>
        <time>2017-09-04T20:55:43Z</time>
      </trkpt>
      <trkpt lat="43.41312" lon="6.66254">
        <ele>73</ele>
        <time>2017-09-04T20:57:43Z</time>
      </trkpt>
      <trkpt lat="43.41335" lon="6.66277">
        <ele>73</ele>
        <time>2017-09-04T20:59:43Z</time>
      </trkpt>
      <trkpt lat="43.41346" lon="6.66361">
        <ele>70</ele>
        <time>2017-09-04T21:01:43Z</time>
      </trkpt>
      <trkpt lat="43.41361" lon="6.66404">
        <ele>71</ele>
        <time>2017-09-04T21:03:43Z</time>
      </trkpt>
      <trkpt lat="43.41425" lon="6.66447">
        <ele>56</ele>
        <time>2017-09-04T21:05:43Z</time>
      </trkpt>
      <trkpt lat="43.41444" lon="6.66487">
        <ele>57</ele>
        <time>2017-09-04T21:07:43Z</time>
      </trkpt>
      <trkpt lat="43.41523" lon="6.66501">
        <ele>54</ele>
        <time>2017-09-04T21:09:43Z</time>
      </trkpt>
      <trkpt lat="43.41543" lon="6.66494">
        <ele>52</ele>
        <time>2017-09-04T21:11:43Z</time>
      </trkpt>
      <trkpt lat="43.41572" lon="6.66507">
        <ele>52</ele>
        <time>2017-09-04T21:13:43Z</time>
      </trkpt>
      <trkpt lat="43.416" lon="6.66486">
        <ele>52</ele>
        <time>2017-09-04T21:15:43Z</time>
      </trkpt>
      <trkpt lat="43.41624" lon="6.66481">
        <ele>52</ele>
        <time>2017-09-04T21:17:43Z</time>
      </trkpt>
      <trkpt lat="43.41639" lon="6.66522">
        <ele>50</ele>
        <time>2017-09-04T21:19:43Z</time>
      </trkpt>
      <trkpt lat="43.41652" lon="6.66517">
        <ele>50</ele>
        <time>2017-09-04T21:21:43Z</time>
      </trkpt>
      <trkpt lat="43.41683" lon="6.66494">
        <ele>50</ele>
        <time>2017-09-04T21:23:43Z</time>
      </trkpt>
      <trkpt lat="43.41735" lon="6.66478">
        <ele>46</ele>
        <time>2017-09-04T21:25:43Z</time>
      </trkpt>
      <trkpt lat="43.41746" lon="6.66484">
        <ele>46</ele>
        <time>2017-09-04T21:27:43Z</time>
      </trkpt>
      <trkpt lat="43.41739" lon="6.66528">
        <ele>46</ele>
        <time>2017-09-04T21:29:43Z</time>
      </trkpt>
      <trkpt lat="43.41761" lon="6.66564">
        <ele>59</ele>
        <time>2017-09-04T21:31:43Z</time>
      </trkpt>
      <trkpt lat="43.41818" lon="6.66514">
        <ele>42</ele>
        <time>2017-09-04T21:33:43Z</time>
      </trkpt>
      <trkpt lat="43.41874" lon="6.66517">
        <ele>42</ele>
        <time>2017-09-04T21:35:43Z</time>
      </trkpt>
      <trkpt lat="43.41984" lon="6.66466">
        <ele>36</ele>
        <time>2017-09-04T21:37:43Z</time>
      </trkpt>
      <trkpt lat="43.41994" lon="6.66458">
        <ele>27</ele>
        <time>2017-09-04T21:39:43Z</time>
      </trkpt>
      <trkpt lat="43.42023" lon="6.66374">
        <ele>28</ele>
        <time>2017-09-04T21:41:43Z</time>
      </trkpt>
      <trkpt lat="43.42031" lon="6.6637">
        <ele>28</ele>
        <time>2017-09-04T21:43:43Z</time>
      </trkpt>
      <trkpt lat="43.42068" lon="6.66383">
        <ele>23</ele>
        <time>2017-09-04T21:45:43Z</time>
      </trkpt>
      <trkpt lat="43.42139" lon="6.66371">
        <ele>24</ele>
        <time>2017-09-04T21:47:43Z</time>
      </trkpt>
      <trkpt lat="43.42208" lon="6.66387">
        <ele>21</ele>
        <time>2017-09-04T21:49:43Z</time>
      </trkpt>
      <trkpt lat="43.42281" lon="6.66428">
        <ele>18</ele>
        <time>2017-09-04T21:51:43Z</time>
      </trkpt>
      <trkpt lat="43.42298" lon="6.66462">
        <ele>20</ele>
        <time>2017-09-04T21:53:43Z</time>
      </trkpt>
      <trkpt lat="43.42352" lon="6.66515">
        <ele>20</ele>
        <time>2017-09-04T21:55:43Z</time>
      </trkpt>
      <trkpt lat="43.42374" lon="6.66524">
        <ele>20</ele>
        <time>2017-09-04T21:57:43Z</time>
      </trkpt>
      <trkpt lat="43.42445" lon="6.66529">
        <ele>18</ele>
        <time>2017-09-04T21:59:43Z</time>
      </trkpt>
      <trkpt lat="43.42604" lon="6.66451">
        <ele>15</ele>
        <time>2017-09-04T22:01:43Z</time>
      </trkpt>
      <trkpt lat="43.42606" lon="6.66434">
        <ele>15</ele>
        <time>2017-09-04T22:03:43Z</time>
      </trkpt>
      <trkpt lat="43.42582" lon="6.66373">
        <ele>15</ele>
        <time>2017-09-04T22:05:43Z</time>
      </trkpt>
      <trkpt lat="43.42582" lon="6.66356">
        <ele>15</ele>
        <time>2017-09-04T22:07:43Z</time>
      </trkpt>
      <trkpt lat="43.42626" lon="6.66271">
        <ele>15</ele>
        <time>2017-09-04T22:09:43Z</time>
      </trkpt>
      <trkpt lat="43.42686" lon="6.6619">
        <ele>18</ele>
        <time>2017-09-04T22:11:43Z</time>
      </trkpt>
      <trkpt lat="43.42749" lon="6.66166">
        <ele>18</ele>
        <time>2017-09-04T22:13:43Z</time>
      </trkpt>
      <trkpt lat="43.42916" lon="6.66065">
        <ele>18</ele>
        <time>2017-09-04T22:15:43Z</time>
      </trkpt>
      <trkpt lat="43.42918" lon="6.66055">
        <ele>18</ele>
        <time>2017-09-04T22:17:43Z</time>
      </trkpt>
      <trkpt lat="43.42898" lon="6.6605">
        <ele>18</ele>
        <time>2017-09-04T22:19:43Z</time>
      </trkpt>
      <trkpt lat="43.42855" lon="6.66014">
        <ele>31</ele>
        <time>2017-09-04T22:21:43Z</time>
      </trkpt>
      <trkpt lat="43.42815" lon="6.65927">
        <ele>37</ele>
        <time>2017-09-04T22:23:43Z</time>
      </trkpt>
      <trkpt lat="43.42801" lon="6.6592">
        <ele>37</ele>
        <time>2017-09-04T22:25:43Z</time>
      </trkpt>
      <trkpt lat="43.42792" lon="6.65926">
        <ele>37</ele>
        <time>2017-09-04T22:27:43Z</time>
      </trkpt>
      <trkpt lat="43.42789" lon="6.65957">
        <ele>46</ele>
        <time>2017-09-04T22:29:43Z</time>
      </trkpt>
      <trkpt lat="43.42783" lon="6.65956">
        <ele>46</ele>
        <time>2017-09-04T22:31:43Z</time>
      </trkpt>
      <trkpt lat="43.4273" lon="6.65852">
        <ele>45</ele>
        <time>2017-09-04T22:33:43Z</time>
      </trkpt>
      <trkpt lat="43.42709" lon="6.65858">
        <ele>45</ele>
        <time>2017-09-04T22:35:43Z</time>
      </trkpt>
      <trkpt lat="43.42698" lon="6.65851">
        <ele>51</ele>
        <time>2017-09-04T22:37:43Z</time>
      </trkpt>
      <trkpt lat="43.42692" lon="6.65838">
        <ele>51</ele>
        <time>2017-09-04T22:39:43Z</time>
      </trkpt>
      <trkpt lat="43.4267" lon="6.65689">
        <ele>61</ele>
        <time>2017-09-04T22:41:43Z</time>
      </trkpt>
      <trkpt lat="43.42667" lon="6.65637">
        <ele>61</ele>
        <time>2017-09-04T22:43:43Z</time>
      </trkpt>
      <trkpt lat="43.42647" lon="6.65614">
        <ele>66</ele>
        <time>2017-09-04T22:45:43Z</time>
      </trkpt>
      <trkpt lat="43.4261" lon="6.65542">
        <ele>71</ele>
        <time>2017-09-04T22:47:43Z</time>
      </trkpt>
      <trkpt lat="43.42661" lon="6.65476">
        <ele>71</ele>
        <time>2017-09-04T22:49:43Z</time>
      </trkpt>
      <trkpt lat="43.42699" lon="6.6546">
        <ele>71</ele>
        <time>2017-09-04T22:51:43Z</time>
      </trkpt>
      <trkpt lat="43.42712" lon="6.6544">
        <ele>71</ele>
        <time>2017-09-04T22:53:43Z</time>
      </trkpt>
      <trkpt lat="43.42709" lon="6.65418">
        <ele>71</ele>
        <time>2017-09-04T22:55:43Z</time>
      </trkpt>
      <trkpt lat="43.42681" lon="6.654">
        <ele>75</ele>
        <time>2017-09-04T22:57:43Z</time>
      </trkpt>
      <trkpt lat="43.42606" lon="6.65393">
        <ele>77</ele>
        <time>2017-09-04T22:59:43Z</time>
      </trkpt>
      <trkpt lat="43.42511" lon="6.65349">
        <ele>85</ele>
        <time>2017-09-04T23:01:43Z</time>
      </trkpt>
      <trkpt lat="43.42445" lon="6.65265">
        <ele>98</ele>
        <time>2017-09-04T23:03:43Z</time>
      </trkpt>
      <trkpt lat="43.4241" lon="6.65197">
        <ele>96</ele>
        <time>2017-09-04T23:05:43Z</time>
      </trkpt>
      <trkpt lat="43.42395" lon="6.65189">
        <ele>96</ele>
        <time>2017-09-04T23:07:43Z</time>
      </trkpt>
      <trkpt lat="43.42373" lon="6.65154">
        <ele>96</ele>
        <time>2017-09-04T23:09:43Z</time>
      </trkpt>
      <trkpt lat="43.42359" lon="6.65117">
        <ele>98</ele>
        <time>2017-09-04T23:11:43Z</time>
      </trkpt>
      <trkpt lat="43.42295" lon="6.65009">
        <ele>104</ele>
        <time>2017-09-04T23:13:43Z</time>
      </trkpt>
      <trkpt lat="43.42274" lon="6.64956">
        <ele>118</ele>
        <time>2017-09-04T23:15:43Z</time>
      </trkpt>
      <trkpt lat="43.42255" lon="6.64946">
        <ele>118</ele>
        <time>2017-09-04T23:17:43Z</time>
      </trkpt>
      <trkpt lat="43.42242" lon="6.64951">
        <ele>118</ele>
        <time>2017-09-04T23:19:43Z</time>
      </trkpt>
      <trkpt lat="43.42196" lon="6.65002">
        <ele>107</ele>
        <time>2017-09-04T23:21:43Z</time>
      </trkpt>
      <trkpt lat="43.42182" lon="6.65001">
        <ele>107</ele>
        <time>2017-09-04T23:23:43Z</time>
      </trkpt>
      <trkpt lat="43.42154" lon="6.64965">
        <ele>107</ele>
        <time>2017-09-04T23:25:43Z</time>
      </trkpt>
      <trkpt lat="43.42122" lon="6.64893">
        <ele>113</ele>
        <time>2017-09-04T23:27:43Z</time>
      </trkpt>
      <trkpt lat="43.42114" lon="6.64889">
        <ele>113</ele>
        <time>2017-09-04T23:29:43Z</time>
      </trkpt>
      <trkpt lat="43.42064" lon="6.64915">
        <ele>113</ele>
        <time>2017-09-04T23:31:43Z</time>
      </trkpt>
      <trkpt lat="43.41959" lon="6.64807">
        <ele>115</ele>
        <time>2017-09-04T23:33:43Z</time>
      </trkpt>
      <trkpt lat="43.41939" lon="6.64797">
        <ele>100</ele>
        <time>2017-09-04T23:35:43Z</time>
      </trkpt>
      <trkpt lat="43.41915" lon="6.64775">
        <ele>112</ele>
        <time>2017-09-04T23:37:43Z</time>
      </trkpt>
      <trkpt lat="43.41898" lon="6.64741">
        <ele>112</ele>
        <time>2017-09-04T23:39:43Z</time>
      </trkpt>
      <trkpt lat="43.41894" lon="6.64692">
        <ele>113</ele>
        <time>2017-09-04T23:41:43Z</time>
      </trkpt>
      <trkpt lat="43.4191" lon="6.64663">
        <ele>113</ele>
        <time>2017-09-04T23:43:43Z</time>
      </trkpt>
      <trkpt lat="43.41919" lon="6.64623">
        <ele>107</ele>
        <time>2017-09-04T23:45:43Z</time>
      </trkpt>
      <trkpt lat="43.41933" lon="6.64598">
        <ele>107</ele>
        <time>2017-09-04T23:47:43Z</time>
      </trkpt>
      <trkpt lat="43.41953" lon="6.64583">
        <ele>107</ele>
        <time>2017-09-04T23:49:43Z</time>
      </trkpt>
      <trkpt lat="43.41984" lon="6.64507">
        <ele>121</ele>
        <time>2017-09-04T23:51:43Z</time>
      </trkpt>
      <trkpt lat="43.41971" lon="6.645">
        <ele>121</ele>
        <time>2017-09-04T23:53:43Z</time>
      </trkpt>
      <trkpt lat="43.41906" lon="6.64523">
        <ele>115</ele>
        <time>2017-09-04T23:55:43Z</time>
      </trkpt>
      <trkpt lat="43.41885" lon="6.64517">
        <ele>115</ele>
        <time>2017-09-04T23:57:43Z</time>
      </trkpt>
      <trkpt lat="43.41876" lon="6.64486">
        <ele>115</ele>
        <time>2017-09-04T23:59:43Z</time>
      </trkpt>
      <trkpt lat="43.41829" lon="6.64532">
        <ele>116</ele>
        <time>2017-09-05T00:01:43Z</time>
      </trkpt>
      <trkpt lat="43.41788" lon="6.64536">
        <ele>111</ele>
        <time>2017-09-05T00:03:43Z</time>
      </trkpt>
      <trkpt lat="43.4173" lon="6.64499">
        <ele>111</ele>
        <time>2017-09-05T00:05:43Z</time>
      </trkpt>
      <trkpt lat="43.41706" lon="6.64449">
        <ele>114</ele>
        <time>2017-09-05T00:07:43Z</time>
      </trkpt>
      <trkpt lat="43.41683" lon="6.64457">
        <ele>114</ele>
        <time>2017-09-05T00:09:43Z</time>
      </trkpt>
      <trkpt lat="43.41664" lon="6.64444">
        <ele>114</ele>
        <time>2017-09-05T00:11:43Z</time>
      </trkpt>
      <trkpt lat="43.41648" lon="6.64458">
        <ele>114</ele>
        <time>2017-09-05T00:13:43Z</time>
      </trkpt>
      <trkpt lat="43.41638" lon="6.64455">
        <ele>114</ele>
        <time>2017-09-05T00:15:43Z</time>
      </trkpt>
      <trkpt lat="43.41608" lon="6.64425">
        <ele>102</ele>
        <time>2017-09-05T00:17:43Z</time>
      </trkpt>
      <trkpt lat="43.41557" lon="6.64398">
        <ele>102</ele>
        <time>2017-09-05T00:19:43Z</time>
      </trkpt>
      <trkpt lat="43.41513" lon="6.64387">
        <ele>93</ele>
        <time>2017-09-05T00:21:43Z</time>
      </trkpt>
      <trkpt lat="43.41468" lon="6.64343">
        <ele>108</ele>
        <time>2017-09-05T00:23:43Z</time>
      </trkpt>
      <trkpt lat="43.41462" lon="6.64324">
        <ele>108</ele>
        <time>2017-09-05T00:25:43Z</time>
      </trkpt>
      <trkpt lat="43.41458" lon="6.64211">
        <ele>97</ele>
        <time>2017-09-05T00:27:43Z</time>
      </trkpt>
      <trkpt lat="43.41428" lon="6.64235">
        <ele>97</ele>
        <time>2017-09-05T00:29:43Z</time>
      </trkpt>
      <trkpt lat="43.41414" lon="6.64235">
        <ele>97</ele>
        <time>2017-09-05T00:31:43Z</time>
      </trkpt>
      <trkpt lat="43.41366" lon="6.64201">
        <ele>105</ele>
        <time>2017-09-05T00:33:43Z</time>
      </trkpt>
      <trkpt lat="43.41299" lon="6.64138">
        <ele>105</ele>
        <time>2017-09-05T00:35:43Z</time>
      </trkpt>
      <trkpt lat="43.41278" lon="6.64139">
        <ele>111</ele>
        <time>2017-09-05T00:37:43Z</time>
      </trkpt>
      <trkpt lat="43.41138" lon="6.64094">
        <ele>113</ele>
        <time>2017-09-05T00:39:43Z</time>
      </trkpt>
      <trkpt lat="43.41049" lon="6.64089">
        <ele>113</ele>
        <time>2017-09-05T00:41:43Z</time>
      </trkpt>
      <trkpt lat="43.40985" lon="6.64073">
        <ele>115</ele>
        <time>2017-09-05T00:43:43Z</time>
      </trkpt>
      <trkpt lat="43.40954" lon="6.64047">
        <ele>123</ele>
        <time>2017-09-05T00:45:43Z</time>
      </trkpt>
      <trkpt lat="43.40912" lon="6.64039">
        <ele>131</ele>
        <time>2017-09-05T00:47:43Z</time>
      </trkpt>
      <trkpt lat="43.40848" lon="6.64062">
        <ele>131</ele>
        <time>2017-09-05T00:49:43Z</time>
      </trkpt>
      <trkpt lat="43.40769" lon="6.64077">
        <ele>132</ele>
        <time>2017-09-05T00:51:43Z</time>
      </trkpt>
      <trkpt lat="43.40735" lon="6.64074">
        <ele>132</ele>
        <time>2017-09-05T00:53:43Z</time>
      </trkpt>
      <trkpt lat="43.4072" lon="6.64061">
        <ele>132</ele>
        <time>2017-09-05T00:55:43Z</time>
      </trkpt>
      <trkpt lat="43.4067" lon="6.63977">
        <ele>140</ele>
        <time>2017-09-05T00:57:43Z</time>
      </trkpt>
      <trkpt lat="43.4066" lon="6.64027">
        <ele>140</ele>
        <time>2017-09-05T00:59:43Z</time>
      </trkpt>
      <trkpt lat="43.40644" lon="6.64041">
        <ele>140</ele>
        <time>2017-09-05T01:01:43Z</time>
      </trkpt>
      <trkpt lat="43.40514" lon="6.64033">
        <ele>172</ele>
        <time>2017-09-05T01:03:43Z</time>
      </trkpt>
      <trkpt lat="43.40404" lon="6.6405">
        <ele>162</ele>
        <time>2017-09-05T01:05:43Z</time>
      </trkpt>
      <trkpt lat="43.4024" lon="6.64058">
        <ele>171</ele>
        <time>2017-09-05T01:07:43Z</time>
      </trkpt>
      <trkpt lat="43.40187" lon="6.64037">
        <ele>189</ele>
        <time>2017-09-05T01:09:43Z</time>
      </trkpt>
      <trkpt lat="43.40176" lon="6.6404">
        <ele>189</ele>
        <time>2017-09-05T01:11:43Z</time>
      </trkpt>
      <trkpt lat="43.40156" lon="6.64068">
        <ele>177</ele>
        <time>2017-09-05T01:13:43Z</time>
      </trkpt>
      <trkpt lat="43.40078" lon="6.64103">
        <ele>193</ele>
        <time>2017-09-05T01:15:43Z</time>
      </trkpt>
      <trkpt lat="43.40037" lon="6.64158">
        <ele>189</ele>
        <time>2017-09-05T01:17:43Z</time>
      </trkpt>
      <trkpt lat="43.40028" lon="6.6416">
        <ele>189</ele>
        <time>2017-09-05T01:19:43Z</time>
      </trkpt>
      <trkpt lat="43.39956" lon="6.6412">
        <ele>184</ele>
        <time>2017-09-05T01:21:43Z</time>
      </trkpt>
      <trkpt lat="43.39874" lon="6.64044">
        <ele>177</ele>
        <time>2017-09-05T01:23:43Z</time>
      </trkpt>
      <trkpt lat="43.39843" lon="6.64072">
        <ele>177</ele>
        <time>2017-09-05T01:25:43Z</time>
      </trkpt>
      <trkpt lat="43.39814" lon="6.64075">
        <ele>177</ele>
        <time>2017-09-05T01:27:43Z</time>
      </trkpt>
      <trkpt lat="43.39737" lon="6.64049">
        <ele>177</ele>
        <time>2017-09-05T01:29:43Z</time>
      </trkpt>
      <trkpt lat="43.39689" lon="6.64047">
        <ele>173</ele>
        <time>2017-09-05T01:31:43Z</time>
      </trkpt>
      <trkpt lat="43.39622" lon="6.64016">
        <ele>180</ele>
        <time>2017-09-05T01:33:43Z</time>
      </trkpt>
      <trkpt lat="43.39602" lon="6.63985">
        <ele>180</ele>
        <time>2017-09-05T01:35:43Z</time>
      </trkpt>
      <trkpt lat="43.39587" lon="6.63935">
        <ele>198</ele>
        <time>2017-09-05T01:37:43Z</time>
      </trkpt>
      <trkpt lat="43.39564" lon="6.63924">
        <ele>198</ele>
        <time>2017-09-05T01:39:43Z</time>
      </trkpt>
      <trkpt lat="43.39515" lon="6.63959">
        <ele>175</ele>
        <time>2017-09-05T01:41:43Z</time>
      </trkpt>
      <trkpt lat="43.39488" lon="6.63958">
        <ele>201</ele>
        <time>2017-09-05T01:43:43Z</time>
      </trkpt>
      <trkpt lat="43.39468" lon="6.6394">
        <ele>201</ele>
        <time>2017-09-05T01:45:43Z</time>
      </trkpt>
      <trkpt lat="43.39435" lon="6.63947">
        <ele>201</ele>
        <time>2017-09-05T01:47:43Z</time>
      </trkpt>
      <trkpt lat="43.39377" lon="6.63936">
        <ele>201</ele>
        <time>2017-09-05T01:49:43Z</time>
      </trkpt>
      <trkpt lat="43.39327" lon="6.63943">
        <ele>209</ele>
        <time>2017-09-05T01:51:43Z</time>
      </trkpt>
      <trkpt lat="43.39291" lon="6.63966">
        <ele>207</ele>
        <time>2017-09-05T01:53:43Z</time>
      </trkpt>
      <trkpt lat="43.39283" lon="6.63996">
        <ele>207</ele>
        <time>2017-09-05T01:55:43Z</time>
      </trkpt>
      <trkpt lat="43.39264" lon="6.64009">
        <ele>207</ele>
        <time>2017-09-05T01:57:43Z</time>
      </trkpt>
      <trkpt lat="43.39228" lon="6.63995">
        <ele>207</ele>
        <time>2017-09-05T01:59:43Z</time>
      </trkpt>
      <trkpt lat="43.39171" lon="6.63949">
        <ele>208</ele>
        <time>2017-09-05T02:01:43Z</time>
      </trkpt>
      <trkpt lat="43.39101" lon="6.63975">
        <ele>212</ele>
        <time>2017-09-05T02:03:43Z</time>
      </trkpt>
      <trkpt lat="43.39069" lon="6.64005">
        <ele>212</ele>
        <time>2017-09-05T02:05:43Z</time>
      </trkpt>
      <trkpt lat="43.39038" lon="6.64011">
        <ele>202</ele>
        <time>2017-09-05T02:07:43Z</time>
      </trkpt>
      <trkpt lat="43.38963" lon="6.64018">
        <ele>202</ele>
        <time>2017-09-05T02:09:43Z</time>
      </trkpt>
      <trkpt lat="43.38943" lon="6.64036">
        <ele>187</ele>
        <time>2017-09-05T02:11:43Z</time>
      </trkpt>
      <trkpt lat="43.38952" lon="6.64009">
        <ele>187</ele>
        <time>2017-09-05T02:13:43Z</time>
      </trkpt>
      <trkpt lat="43.3899" lon="6.63979">
        <ele>202</ele>
        <time>2017-09-05T02:15:43Z</time>
      </trkpt>
      <trkpt lat="43.39029" lon="6.63933">
        <ele>186</ele>
        <time>2017-09-05T02:17:43Z</time>
      </trkpt>
      <trkpt lat="43.39029" lon="6.63916">
        <ele>186</ele>
        <time>2017-09-05T02:19:43Z</time>
      </trkpt>
      <trkpt lat="43.39014" lon="6.63888">
        <ele>186</ele>
        <time>2017-09-05T02:21:43Z</time>
      </trkpt>
      <trkpt lat="43.38969" lon="6.63857">
        <ele>177</ele>
        <time>2017-09-05T02:23:43Z</time>
      </trkpt>
      <trkpt lat="43.38957" lon="6.63841">
        <ele>159</ele>
        <time>2017-09-05T02:25:43Z</time>
      </trkpt>
      <trkpt lat="43.38943" lon="6.638">
        <ele>159</ele>
        <time>2017-09-05T02:27:43Z</time>
      </trkpt>
      <trkpt lat="43.38898" lon="6.63752">
        <ele>161</ele>
        <time>2017-09-05T02:29:43Z</time>
      </trkpt>
      <trkpt lat="43.38881" lon="6.63714">
        <ele>161</ele>
        <time>2017-09-05T02:31:43Z</time>
      </trkpt>
      <trkpt lat="43.38804" lon="6.63625">
        <ele>147</ele>
        <time>2017-09-05T02:33:43Z</time>
      </trkpt>
      <trkpt lat="43.38774" lon="6.63544">
        <ele>139</ele>
        <time>2017-09-05T02:35:43Z</time>
      </trkpt>
      <trkpt lat="43.38787" lon="6.63496">
        <ele>143</ele>
        <time>2017-09-05T02:37:43Z</time>
      </trkpt>
      <trkpt lat="43.38783" lon="6.63489">
        <ele>143</ele>
        <time>2017-09-05T02:39:43Z</time>
      </trkpt>
      <trkpt lat="43.38746" lon="6.63484">
        <ele>143</ele>
        <time>2017-09-05T02:41:43Z</time>
      </trkpt>
      <trkpt lat="43.38723" lon="6.63509">
        <ele>143</ele>
        <time>2017-09-05T02:43:43Z</time>
      </trkpt>
      <trkpt lat="43.38664" lon="6.63474">
        <ele>124</ele>
        <time>2017-09-05T02:45:43Z</time>
      </trkpt>
      <trkpt lat="43.38639" lon="6.63401">
        <ele>124</ele>
        <time>2017-09-05T02:47:43Z</time>
      </trkpt>
      <trkpt lat="43.3863" lon="6.63391">
        <ele>124</ele>
        <time>2017-09-05T02:49:43Z</time>
      </trkpt>
      <trkpt lat="43.38613" lon="6.63403">
        <ele>110</ele>
        <time>2017-09-05T02:51:43Z</time>
      </trkpt>
      <trkpt lat="43.38549" lon="6.63388">
        <ele>110</ele>
        <time>2017-09-05T02:53:43Z</time>
      </trkpt>
      <trkpt lat="43.38433" lon="6.63517">
        <ele>99</ele>
        <time>2017-09-05T02:55:43Z</time>
      </trkpt>
      <trkpt lat="43.38417" lon="6.63566">
        <ele>99</ele>
        <time>2017-09-05T02:57:43Z</time>
      </trkpt>
      <trkpt lat="43.3837" lon="6.63637">
        <ele>93</ele>
        <time>2017-09-05T02:59:43Z</time>
      </trkpt>
      <trkpt lat="43.38336" lon="6.63655">
        <ele>93</ele>
        <time>2017-09-05T03:01:43Z</time>
      </trkpt>
      <trkpt lat="43.38322" lon="6.63675">
        <ele>93</ele>
        <time>2017-09-05T03:03:43Z</time>
      </trkpt>
      <trkpt lat="43.38277" lon="6.63715">
        <ele>90</ele>
        <time>2017-09-05T03:05:43Z</time>
      </trkpt>
      <trkpt lat="43.38262" lon="6.63718">
        <ele>90</ele>
        <time>2017-09-05T03:07:43Z</time>
      </trkpt>
      <trkpt lat="43.38228" lon="6.63705">
        <ele>99</ele>
        <time>2017-09-05T03:09:43Z</time>
      </trkpt>
      <trkpt lat="43.3819" lon="6.63675">
        <ele>93</ele>
        <time>2017-09-05T03:11:43Z</time>
      </trkpt>
      <trkpt lat="43.38167" lon="6.63639">
        <ele>93</ele>
        <time>2017-09-05T03:13:43Z</time>
      </trkpt>
      <trkpt lat="43.38157" lon="6.63608">
        <ele>98</ele>
        <time>2017-09-05T03:15:43Z</time>
      </trkpt>
      <trkpt lat="43.38142" lon="6.636">
        <ele>98</ele>
        <time>2017-09-05T03:17:43Z</time>
      </trkpt>
      <trkpt lat="43.38137" lon="6.63662">
        <ele>93</ele>
        <time>2017-09-05T03:19:43Z</time>
      </trkpt>
      <trkpt lat="43.38142" lon="6.63699">
        <ele>93</ele>
        <time>2017-09-05T03:21:43Z</time>
      </trkpt>
      <trkpt lat="43.38157" lon="6.63746">
        <ele>97</ele>
        <time>2017-09-05T03:23:43Z</time>
      </trkpt>
      <trkpt lat="43.38211" lon="6.6384">
        <ele>95</ele>
        <time>2017-09-05T03:25:43Z</time>
      </trkpt>
      <trkpt lat="43.38207" lon="6.63843">
        <ele>116</ele>
        <time>2017-09-05T03:27:43Z</time>
      </trkpt>
      <trkpt lat="43.38061" lon="6.63774">
        <ele>115</ele>
        <time>2017-09-05T03:29:43Z</time>
      </trkpt>
      <trkpt lat="43.37991" lon="6.63755">
        <ele>130</ele>
        <time>2017-09-05T03:31:43Z</time>
      </trkpt>
      <trkpt lat="43.37868" lon="6.63765">
        <ele>145</ele>
        <time>2017-09-05T03:33:43Z</time>
      </trkpt>
      <trkpt lat="43.37799" lon="6.63751">
        <ele>145</ele>
        <time>2017-09-05T03:35:43Z</time>
      </trkpt>
      <trkpt lat="43.37751" lon="6.63739">
        <ele>158</ele>
        <time>2017-09-05T03:37:43Z</time>
      </trkpt>
      <trkpt lat="43.37744" lon="6.63701">
        <ele>150</ele>
        <time>2017-09-05T03:39:43Z</time>
      </trkpt>
      <trkpt lat="43.37731" lon="6.6369">
        <ele>150</ele>
        <time>2017-09-05T03:41:43Z</time>
      </trkpt>
      <trkpt lat="43.37705" lon="6.63637">
        <ele>171</ele>
        <time>2017-09-05T03:43:43Z</time>
      </trkpt>
      <trkpt lat="43.37701" lon="6.63619">
        <ele>169</ele>
        <time>2017-09-05T03:45:43Z</time>
      </trkpt>
      <trkpt lat="43.37725" lon="6.63574">
        <ele>146</ele>
        <time>2017-09-05T03:47:43Z</time>
      </trkpt>
      <trkpt lat="43.37724" lon="6.63533">
        <ele>150</ele>
        <time>2017-09-05T03:49:43Z</time>
      </trkpt>
      <trkpt lat="43.37739" lon="6.63457">
        <ele>153</ele>
        <time>2017-09-05T03:51:43Z</time>
      </trkpt>
      <trkpt lat="43.37712" lon="6.63369">
        <ele>154</ele>
        <time>2017-09-05T03:53:43Z</time>
      </trkpt>
      <trkpt lat="43.37698" lon="6.63362">
        <ele>161</ele>
        <time>2017-09-05T03:55:43Z</time>
      </trkpt>
      <trkpt lat="43.3765" lon="6.63366">
        <ele>161</ele>
        <time>2017-09-05T03:57:43Z</time>
      </trkpt>
      <trkpt lat="43.37641" lon="6.63372">
        <ele>161</ele>
        <time>2017-09-05T03:59:43Z</time>
      </trkpt>
      <trkpt lat="43.37642" lon="6.63378">
        <ele>172</ele>
        <time>2017-09-05T04:01:43Z</time>
      </trkpt>
      <trkpt lat="43.37661" lon="6.63396">
        <ele>172</ele>
        <time>2017-09-05T04:03:43Z</time>
      </trkpt>
      <trkpt lat="43.37678" lon="6.63431">
        <ele>172</ele>
        <time>2017-09-05T04:05:43Z</time>
      </trkpt>
      <trkpt lat="43.37677" lon="6.63469">
        <ele>175</ele>
        <time>2017-09-05T04:07:43Z</time>
      </trkpt>
      <trkpt lat="43.37656" lon="6.63536">
        <ele>175</ele>
        <time>2017-09-05T04:09:43Z</time>
      </trkpt>
      <trkpt lat="43.37611" lon="6.63599">
        <ele>191</ele>
        <time>2017-09-05T04:11:43Z</time>
      </trkpt>
      <trkpt lat="43.37607" lon="6.63651">
        <ele>197</ele>
        <time>2017-09-05T04:13:43Z</time>
      </trkpt>
      <trkpt lat="43.37632" lon="6.63713">
        <ele>181</ele>
        <time>2017-09-05T04:15:43Z</time>
      </trkpt>
      <trkpt lat="43.37626" lon="6.63769">
        <ele>181</ele>
        <time>2017-09-05T04:17:43Z</time>
      </trkpt>
      <trkpt lat="43.37659" lon="6.63834">
        <ele>200</ele>
        <time>2017-09-05T04:19:43Z</time>
      </trkpt>
      <trkpt lat="43.37671" lon="6.6389">
        <ele>210</ele>
        <time>2017-09-05T04:21:43Z</time>
      </trkpt>
      <trkpt lat="43.3769" lon="6.63942">
        <ele>210</ele>
        <time>2017-09-05T04:23:43Z</time>
      </trkpt>
      <trkpt lat="43.37688" lon="6.63978">
        <ele>199</ele>
        <time>2017-09-05T04:25:43Z</time>
      </trkpt>
      <trkpt lat="43.3768" lon="6.63989">
        <ele>199</ele>
        <time>2017-09-05T04:27:43Z</time>
      </trkpt>
      <trkpt lat="43.37645" lon="6.63994">
        <ele>199</ele>
        <time>2017-09-05T04:29:43Z</time>
      </trkpt>
      <trkpt lat="43.37596" lon="6.64032">
        <ele>204</ele>
        <time>2017-09-05T04:31:43Z</time>
      </trkpt>
      <trkpt lat="43.37594" lon="6.64041">
        <ele>204</ele>
        <time>2017-09-05T04:33:43Z</time>
      </trkpt>
      <trkpt lat="43.37658" lon="6.64045">
        <ele>181</ele>
        <time>2017-09-05T04:35:43Z</time>
      </trkpt>
      <trkpt lat="43.37676" lon="6.64058">
        <ele>181</ele>
        <time>2017-09-05T04:37:43Z</time>
      </trkpt>
      <trkpt lat="43.37671" lon="6.64072">
        <ele>181</ele>
        <time>2017-09-05T04:39:43Z</time>
      </trkpt>
      <trkpt lat="43.37632" lon="6.64111">
        <ele>181</ele>
        <time>2017-09-05T04:41:43Z</time>
      </trkpt>
      <trkpt lat="43.37672" lon="6.64121">
        <ele>181</ele>
        <time>2017-09-05T04:43:43Z</time>
      </trkpt>
      <trkpt lat="43.37708" lon="6.64102">
        <ele>181</ele>
        <time>2017-09-05T04:45:43Z</time>
      </trkpt>
      <trkpt lat="43.37857" lon="6.64071">
        <ele>158</ele>
        <time>2017-09-05T04:47:43Z</time>
      </trkpt>
      <trkpt lat="43.37956" lon="6.64102">
        <ele>152</ele>
        <time>2017-09-05T04:49:43Z</time>
      </trkpt>
      <trkpt lat="43.38052" lon="6.64179">
        <ele>133</ele>
        <time>2017-09-05T04:51:43Z</time>
      </trkpt>
      <trkpt lat="43.38065" lon="6.64232">
        <ele>119</ele>
        <time>2017-09-05T04:53:43Z</time>
      </trkpt>
      <trkpt lat="43.38062" lon="6.64257">
        <ele>119</ele>
        <time>2017-09-05T04:55:43Z</time>
      </trkpt>
      <trkpt lat="43.3807" lon="6.64271">
        <ele>119</ele>
        <time>2017-09-05T04:57:43Z</time>
      </trkpt>
      <trkpt lat="43.38098" lon="6.64279">
        <ele>119</ele>
        <time>2017-09-05T04:59:43Z</time>
      </trkpt>
      <trkpt lat="43.38122" lon="6.64263">
        <ele>119</ele>
        <time>2017-09-05T05:01:43Z</time>
      </trkpt>
      <trkpt lat="43.38142" lon="6.64263">
        <ele>106</ele>
        <time>2017-09-05T05:03:43Z</time>
      </trkpt>
      <trkpt lat="43.38199" lon="6.6422">
        <ele>106</ele>
        <time>2017-09-05T05:05:43Z</time>
      </trkpt>
      <trkpt lat="43.38219" lon="6.64236">
        <ele>103</ele>
        <time>2017-09-05T05:07:43Z</time>
      </trkpt>
      <trkpt lat="43.38221" lon="6.6427">
        <ele>103</ele>
        <time>2017-09-05T05:09:43Z</time>
      </trkpt>
      <trkpt lat="43.38224" lon="6.64291">
        <ele>103</ele>
        <time>2017-09-05T05:11:43Z</time>
      </trkpt>
      <trkpt lat="43.38216" lon="6.64316">
        <ele>103</ele>
        <time>2017-09-05T05:13:43Z</time>
      </trkpt>
      <trkpt lat="43.38155" lon="6.64371">
        <ele>94</ele>
        <time>2017-09-05T05:15:43Z</time>
      </trkpt>
      <trkpt lat="43.38136" lon="6.64414">
        <ele>89</ele>
        <time>2017-09-05T05:17:43Z</time>
      </trkpt>
      <trkpt lat="43.38117" lon="6.64439">
        <ele>86</ele>
        <time>2017-09-05T05:19:43Z</time>
      </trkpt>
      <trkpt lat="43.38071" lon="6.64421">
        <ele>86</ele>
        <time>2017-09-05T05:21:43Z</time>
      </trkpt>
      <trkpt lat="43.38052" lon="6.64426">
        <ele>86</ele>
        <time>2017-09-05T05:23:43Z</time>
      </trkpt>
      <trkpt lat="43.38017" lon="6.64459">
        <ele>85</ele>
        <time>2017-09-05T05:25:43Z</time>
      </trkpt>
      <trkpt lat="43.37948" lon="6.64444">
        <ele>85</ele>
        <time>2017-09-05T05:27:43Z</time>
      </trkpt>
      <trkpt lat="43.37866" lon="6.64457">
        <ele>91</ele>
        <time>2017-09-05T05:29:43Z</time>
      </trkpt>
      <trkpt lat="43.37827" lon="6.64492">
        <ele>88</ele>
        <time>2017-09-05T05:31:43Z</time>
      </trkpt>
      <trkpt lat="43.37766" lon="6.64524">
        <ele>93</ele>
        <time>2017-09-05T05:33:43Z</time>
      </trkpt>
      <trkpt lat="43.37751" lon="6.6456">
        <ele>91</ele>
        <time>2017-09-05T05:35:43Z</time>
      </trkpt>
      <trkpt lat="43.37721" lon="6.64591">
        <ele>91</ele>
        <time>2017-09-05T05:37:43Z</time>
      </trkpt>
      <trkpt lat="43.37688" lon="6.646">
        <ele>94</ele>
        <time>2017-09-05T05:39:43Z</time>
      </trkpt>
      <trkpt lat="43.37634" lon="6.6458">
        <ele>94</ele>
        <time>2017-09-05T05:41:43Z</time>
      </trkpt>
      <trkpt lat="43.37592" lon="6.64585">
        <ele>97</ele>
        <time>2017-09-05T05:43:43Z</time>
      </trkpt>
      <trkpt lat="43.37569" lon="6.64597">
        <ele>97</ele>
        <time>2017-09-05T05:45:43Z</time>
      </trkpt>
      <trkpt lat="43.37356" lon="6.64768">
        <ele>103</ele>
        <time>2017-09-05T05:47:43Z</time>
      </trkpt>
      <trkpt lat="43.37282" lon="6.64769">
        <ele>106</ele>
        <time>2017-09-05T05:49:43Z</time>
      </trkpt>
      <trkpt lat="43.3722" lon="6.64693">
        <ele>105</ele>
        <time>2017-09-05T05:51:43Z</time>
      </trkpt>
      <trkpt lat="43.37186" lon="6.64703">
        <ele>112</ele>
        <time>2017-09-05T05:53:43Z</time>
      </trkpt>
      <trkpt lat="43.37055" lon="6.6477">
        <ele>106</ele>
        <time>2017-09-05T05:55:43Z</time>
      </trkpt>
      <trkpt lat="43.3702" lon="6.64773">
        <ele>109</ele>
        <time>2017-09-05T05:57:43Z</time>
      </trkpt>
      <trkpt lat="43.36972" lon="6.6476">
        <ele>109</ele>
        <time>2017-09-05T05:59:43Z</time>
      </trkpt>
      <trkpt lat="43.36912" lon="6.64772">
        <ele>111</ele>
        <time>2017-09-05T06:01:43Z</time>
      </trkpt>
      <trkpt lat="43.36887" lon="6.64788">
        <ele>111</ele>
        <time>2017-09-05T06:03:43Z</time>
      </trkpt>
      <trkpt lat="43.36863" lon="6.64856">
        <ele>117</ele>
        <time>2017-09-05T06:05:43Z</time>
      </trkpt>
      <trkpt lat="43.36855" lon="6.64861">
        <ele>117</ele>
        <time>2017-09-05T06:07:43Z</time>
      </trkpt>
      <trkpt lat="43.36785" lon="6.64879">
        <ele>126</ele>
        <time>2017-09-05T06:09:43Z</time>
      </trkpt>
      <trkpt lat="43.36736" lon="6.64881">
        <ele>126</ele>
        <time>2017-09-05T06:11:43Z</time>
      </trkpt>
      <trkpt lat="43.36642" lon="6.64922">
        <ele>123</ele>
        <time>2017-09-05T06:13:43Z</time>
      </trkpt>
      <trkpt lat="43.36577" lon="6.64966">
        <ele>127</ele>
        <time>2017-09-05T06:15:43Z</time>
      </trkpt>
      <trkpt lat="43.36566" lon="6.64985">
        <ele>127</ele>
        <time>2017-09-05T06:17:43Z</time>
      </trkpt>
      <trkpt lat="43.36571" lon="6.65091">
        <ele>131</ele>
        <time>2017-09-05T06:19:43Z</time>
      </trkpt>
      <trkpt lat="43.36583" lon="6.65141">
        <ele>132</ele>
        <time>2017-09-05T06:21:43Z</time>
      </trkpt>
      <trkpt lat="43.36589" lon="6.65212">
        <ele>133</ele>
        <time>2017-09-05T06:23:43Z</time>
      </trkpt>
      <trkpt lat="43.36584" lon="6.653">
        <ele>137</ele>
        <time>2017-09-05T06:25:43Z</time>
      </trkpt>
      <trkpt lat="43.36594" lon="6.65333">
        <ele>137</ele>
        <time>2017-09-05T06:27:43Z</time>
      </trkpt>
      <trkpt lat="43.36602" lon="6.65459">
        <ele>148</ele>
        <time>2017-09-05T06:29:43Z</time>
      </trkpt>
      <trkpt lat="43.36616" lon="6.65522">
        <ele>148</ele>
        <time>2017-09-05T06:31:43Z</time>
      </trkpt>
      <trkpt lat="43.36615" lon="6.65599">
        <ele>150</ele>
        <time>2017-09-05T06:33:43Z</time>
      </trkpt>
      <trkpt lat="43.36682" lon="6.65763">
        <ele>151</ele>
        <time>2017-09-05T06:35:43Z</time>
      </trkpt>
      <trkpt lat="43.36675" lon="6.65791">
        <ele>151</ele>
        <time>2017-09-05T06:37:43Z</time>
      </trkpt>
      <trkpt lat="43.36657" lon="6.65823">
        <ele>154</ele>
        <time>2017-09-05T06:39:43Z</time>
      </trkpt>
      <trkpt lat="43.36652" lon="6.65861">
        <ele>154</ele>
        <time>2017-09-05T06:41:43Z</time>
      </trkpt>
      <trkpt lat="43.36658" lon="6.65873">
        <ele>154</ele>
        <time>2017-09-05T06:43:43Z</time>
      </trkpt>
      <trkpt lat="43.36702" lon="6.65857">
        <ele>154</ele>
        <time>2017-09-05T06:45:43Z</time>
      </trkpt>
      <trkpt lat="43.36714" lon="6.6587">
        <ele>162</ele>
        <time>2017-09-05T06:47:43Z</time>
      </trkpt>
      <trkpt lat="43.36731" lon="6.6592">
        <ele>165</ele>
        <time>2017-09-05T06:49:43Z</time>
      </trkpt>
      <trkpt lat="43.36756" lon="6.66028">
        <ele>173</ele>
        <time>2017-09-05T06:51:43Z</time>
      </trkpt>
      <trkpt lat="43.3676" lon="6.6613">
        <ele>180</ele>
        <time>2017-09-05T06:53:43Z</time>
      </trkpt>
      <trkpt lat="43.36742" lon="6.66158">
        <ele>180</ele>
        <time>2017-09-05T06:55:43Z</time>
      </trkpt>
      <trkpt lat="43.36687" lon="6.66285">
        <ele>191</ele>
        <time>2017-09-05T06:57:43Z</time>
      </trkpt>
      <trkpt lat="43.36673" lon="6.66299">
        <ele>187</ele>
        <time>2017-09-05T06:59:43Z</time>
      </trkpt>
      <trkpt lat="43.36674" lon="6.66392">
        <ele>184</ele>
        <time>2017-09-05T07:01:43Z</time>
      </trkpt>
      <trkpt lat="43.36737" lon="6.66684">
        <ele>142</ele>
        <time>2017-09-05T07:03:43Z</time>
      </trkpt>
      <trkpt lat="43.36738" lon="6.66741">
        <ele>130</ele>
        <time>2017-09-05T07:05:43Z</time>
      </trkpt>
      <trkpt lat="43.36734" lon="6.66844">
        <ele>122</ele>
        <time>2017-09-05T07:07:43Z</time>
      </trkpt>
      <trkpt lat="43.36721" lon="6.66864">
        <ele>122</ele>
        <time>2017-09-05T07:09:43Z</time>
      </trkpt>
      <trkpt lat="43.36707" lon="6.66865">
        <ele>128</ele>
        <time>2017-09-05T07:11:43Z</time>
      </trkpt>
      <trkpt lat="43.36697" lon="6.66875">
        <ele>134</ele>
        <time>2017-09-05T07:13:43Z</time>
      </trkpt>
      <trkpt lat="43.3671" lon="6.6695">
        <ele>114</ele>
        <time>2017-09-05T07:15:43Z</time>
      </trkpt>
      <trkpt lat="43.36702" lon="6.67031">
        <ele>134</ele>
        <time>2017-09-05T07:17:43Z</time>
      </trkpt>
      <trkpt lat="43.36685" lon="6.67094">
        <ele>124</ele>
        <time>2017-09-05T07:19:43Z</time>
      </trkpt>
      <trkpt lat="43.36694" lon="6.67139">
        <ele>115</ele>
        <time>2017-09-05T07:21:43Z</time>
      </trkpt>
      <trkpt lat="43.36694" lon="6.67192">
        <ele>115</ele>
        <time>2017-09-05T07:23:43Z</time>
      </trkpt>
      <trkpt lat="43.3669" lon="6.6721">
        <ele>110</ele>
        <time>2017-09-05T07:25:43Z</time>
      </trkpt>
      <trkpt lat="43.36671" lon="6.67219">
        <ele>110</ele>
        <time>2017-09-05T07:27:43Z</time>
      </trkpt>
      <trkpt lat="43.36661" lon="6.67247">
        <ele>110</ele>
        <time>2017-09-05T07:29:43Z</time>
      </trkpt>
      <trkpt lat="43.36663" lon="6.67272">
        <ele>110</ele>
        <time>2017-09-05T07:31:43Z</time>
      </trkpt>
      <trkpt lat="43.36655" lon="6.67303">
        <ele>112</ele>
        <time>2017-09-05T07:33:43Z</time>
      </trkpt>
      <trkpt lat="43.36693" lon="6.67338">
        <ele>112</ele>
        <time>2017-09-05T07:35:43Z</time>
      </trkpt>
      <trkpt lat="43.36704" lon="6.6736">
        <ele>112</ele>
        <time>2017-09-05T07:37:43Z</time>
      </trkpt>
      <trkpt lat="43.3671" lon="6.67423">
        <ele>110</ele>
        <time>2017-09-05T07:39:43Z</time>
      </trkpt>
      <trkpt lat="43.36766" lon="6.67593">
        <ele>118</ele>
        <time>2017-09-05T07:41:43Z</time>
      </trkpt>
      <trkpt lat="43.36747" lon="6.67702">
        <ele>126</ele>
        <time>2017-09-05T07:43:43Z</time>
      </trkpt>
      <trkpt lat="43.36763" lon="6.67801">
        <ele>152</ele>
        <time>2017-09-05T07:45:43Z</time>
      </trkpt>
      <trkpt lat="43.36771" lon="6.67939">
        <ele>157</ele>
        <time>2017-09-05T07:47:43Z</time>
      </trkpt>
      <trkpt lat="43.36752" lon="6.67991">
        <ele>153</ele>
        <time>2017-09-05T07:49:43Z</time>
      </trkpt>
      <trkpt lat="43.36702" lon="6.68017">
        <ele>175</ele>
        <time>2017-09-05T07:51:43Z</time>
      </trkpt>
      <trkpt lat="43.36697" lon="6.68042">
        <ele>170</ele>
        <time>2017-09-05T07:53:43Z</time>
      </trkpt>
      <trkpt lat="43.36703" lon="6.68069">
        <ele>170</ele>
        <time>2017-09-05T07:55:43Z</time>
      </trkpt>
      <trkpt lat="43.36722" lon="6.68116">
        <ele>147</ele>
        <time>2017-09-05T07:57:43Z</time>
      </trkpt>
      <trkpt lat="43.36714" lon="6.6817">
        <ele>143</ele>
        <time>2017-09-05T07:59:43Z</time>
      </trkpt>
      <trkpt lat="43.367" lon="6.68194">
        <ele>164</ele>
        <time>2017-09-05T08:01:43Z</time>
      </trkpt>
      <trkpt lat="43.36646" lon="6.68242">
        <ele>149</ele>
        <time>2017-09-05T08:03:43Z</time>
      </trkpt>
      <trkpt lat="43.36577" lon="6.68207">
        <ele>164</ele>
        <time>2017-09-05T08:05:43Z</time>
      </trkpt>
      <trkpt lat="43.36558" lon="6.6819">
        <ele>164</ele>
        <time>2017-09-05T08:07:43Z</time>
      </trkpt>
      <trkpt lat="43.36526" lon="6.6814">
        <ele>150</ele>
        <time>2017-09-05T08:09:43Z</time>
      </trkpt>
      <trkpt lat="43.36449" lon="6.68119">
        <ele>178</ele>
        <time>2017-09-05T08:11:43Z</time>
      </trkpt>
      <trkpt lat="43.36438" lon="6.68148">
        <ele>171</ele>
        <time>2017-09-05T08:13:43Z</time>
      </trkpt>
      <trkpt lat="43.36447" lon="6.68281">
        <ele>168</ele>
        <time>2017-09-05T08:15:43Z</time>
      </trkpt>
      <trkpt lat="43.36435" lon="6.68316">
        <ele>154</ele>
        <time>2017-09-05T08:17:43Z</time>
      </trkpt>
      <trkpt lat="43.36417" lon="6.68335">
        <ele>154</ele>
        <time>2017-09-05T08:19:43Z</time>
      </trkpt>
      <trkpt lat="43.36356" lon="6.6837">
        <ele>165</ele>
        <time>2017-09-05T08:21:43Z</time>
      </trkpt>
      <trkpt lat="43.36337" lon="6.68436">
        <ele>151</ele>
        <time>2017-09-05T08:23:43Z</time>
      </trkpt>
      <trkpt lat="43.3641" lon="6.68535">
        <ele>152</ele>
        <time>2017-09-05T08:25:43Z</time>
      </trkpt>
      <trkpt lat="43.36451" lon="6.68565">
        <ele>172</ele>
        <time>2017-09-05T08:27:43Z</time>
      </trkpt>
      <trkpt lat="43.36514" lon="6.68694">
        <ele>158</ele>
        <time>2017-09-05T08:29:43Z</time>
      </trkpt>
      <trkpt lat="43.36522" lon="6.6873">
        <ele>161</ele>
        <time>2017-09-05T08:31:43Z</time>
      </trkpt>
      <trkpt lat="43.36514" lon="6.68781">
        <ele>161</ele>
        <time>2017-09-05T08:33:43Z</time>
      </trkpt>
      <trkpt lat="43.365" lon="6.68804">
        <ele>143</ele>
        <time>2017-09-05T08:35:43Z</time>
      </trkpt>
      <trkpt lat="43.36472" lon="6.68808">
        <ele>143</ele>
        <time>2017-09-05T08:37:43Z</time>
      </trkpt>
      <trkpt lat="43.36448" lon="6.68834">
        <ele>152</ele>
        <time>2017-09-05T08:39:43Z</time>
      </trkpt>
      <trkpt lat="43.3638" lon="6.68845">
        <ele>152</ele>
        <time>2017-09-05T08:41:43Z</time>
      </trkpt>
      <trkpt lat="43.36355" lon="6.68902">
        <ele>156</ele>
        <time>2017-09-05T08:43:43Z</time>
      </trkpt>
      <trkpt lat="43.3633" lon="6.68939">
        <ele>156</ele>
        <time>2017-09-05T08:45:43Z</time>
      </trkpt>
      <trkpt lat="43.36301" lon="6.68963">
        <ele>140</ele>
        <time>2017-09-05T08:47:43Z</time>
      </trkpt>
      <trkpt lat="43.36276" lon="6.69043">
        <ele>175</ele>
        <time>2017-09-05T08:49:43Z</time>
      </trkpt>
      <trkpt lat="43.36269" lon="6.69118">
        <ele>175</ele>
        <time>2017-09-05T08:51:43Z</time>
      </trkpt>
      <trkpt lat="43.36283" lon="6.69148">
        <ele>179</ele>
        <time>2017-09-05T08:53:43Z</time>
      </trkpt>
      <trkpt lat="43.36287" lon="6.69213">
        <ele>190</ele>
        <time>2017-09-05T08:55:43Z</time>
      </trkpt>
      <trkpt lat="43.36334" lon="6.69232">
        <ele>159</ele>
        <time>2017-09-05T08:57:43Z</time>
      </trkpt>
      <trkpt lat="43.36368" lon="6.69271">
        <ele>159</ele>
        <time>2017-09-05T08:59:43Z</time>
      </trkpt>
      <trkpt lat="43.3641" lon="6.69291">
        <ele>134</ele>
        <time>2017-09-05T09:01:43Z</time>
      </trkpt>
      <trkpt lat="43.36437" lon="6.69303">
        <ele>151</ele>
        <time>2017-09-05T09:03:43Z</time>
      </trkpt>
      <trkpt lat="43.36455" lon="6.69341">
        <ele>151</ele>
        <time>2017-09-05T09:05:43Z</time>
      </trkpt>
      <trkpt lat="43.36458" lon="6.69395">
        <ele>160</ele>
        <time>2017-09-05T09:07:43Z</time>
      </trkpt>
      <trkpt lat="43.36452" lon="6.69439">
        <ele>160</ele>
        <time>2017-09-05T09:09:43Z</time>
      </trkpt>
      <trkpt lat="43.36469" lon="6.69475">
        <ele>132</ele>
        <time>2017-09-05T09:11:43Z</time>
      </trkpt>
      <trkpt lat="43.36496" lon="6.69497">
        <ele>132</ele>
        <time>2017-09-05T09:13:43Z</time>
      </trkpt>
      <trkpt lat="43.36521" lon="6.69561">
        <ele>139</ele>
        <time>2017-09-05T09:15:43Z</time>
      </trkpt>
      <trkpt lat="43.36543" lon="6.69615">
        <ele>118</ele>
        <time>2017-09-05T09:17:43Z</time>
      </trkpt>
      <trkpt lat="43.3658" lon="6.69728">
        <ele>108</ele>
        <time>2017-09-05T09:19:43Z</time>
      </trkpt>
      <trkpt lat="43.36558" lon="6.69714">
        <ele>108</ele>
        <time>2017-09-05T09:21:43Z</time>
      </trkpt>
      <trkpt lat="43.36526" lon="6.69681">
        <ele>128</ele>
        <time>2017-09-05T09:23:43Z</time>
      </trkpt>
      <trkpt lat="43.36494" lon="6.69674">
        <ele>128</ele>
        <time>2017-09-05T09:25:43Z</time>
      </trkpt>
      <trkpt lat="43.36473" lon="6.69711">
        <ele>108</ele>
        <time>2017-09-05T09:27:43Z</time>
      </trkpt>
      <trkpt lat="43.36431" lon="6.69725">
        <ele>118</ele>
        <time>2017-09-05T09:29:43Z</time>
      </trkpt>
      <trkpt lat="43.36381" lon="6.69695">
        <ele>146</ele>
        <time>2017-09-05T09:31:43Z</time>
      </trkpt>
      <trkpt lat="43.36356" lon="6.69678">
        <ele>150</ele>
        <time>2017-09-05T09:33:43Z</time>
      </trkpt>
      <trkpt lat="43.36306" lon="6.69667">
        <ele>150</ele>
        <time>2017-09-05T09:35:43Z</time>
      </trkpt>
      <trkpt lat="43.36255" lon="6.69611">
        <ele>170</ele>
        <time>2017-09-05T09:37:43Z</time>
      </trkpt>
      <trkpt lat="43.36215" lon="6.69548">
        <ele>170</ele>
        <time>2017-09-05T09:39:43Z</time>
      </trkpt>
      <trkpt lat="43.36169" lon="6.69503">
        <ele>184</ele>
        <time>2017-09-05T09:41:43Z</time>
      </trkpt>
      <trkpt lat="43.36119" lon="6.69474">
        <ele>185</ele>
        <time>2017-09-05T09:43:43Z</time>
      </trkpt>
      <trkpt lat="43.36077" lon="6.69468">
        <ele>185</ele>
        <time>2017-09-05T09:45:43Z</time>
      </trkpt>
      <trkpt lat="43.36058" lon="6.69505">
        <ele>185</ele>
        <time>2017-09-05T09:47:43Z</time>
      </trkpt>
      <trkpt lat="43.36058" lon="6.69562">
        <ele>171</ele>
        <time>2017-09-05T09:49:43Z</time>
      </trkpt>
      <trkpt lat="43.36019" lon="6.69505">
        <ele>182</ele>
        <time>2017-09-05T09:51:43Z</time>
      </trkpt>
      <trkpt lat="43.35986" lon="6.69448">
        <ele>205</ele>
        <time>2017-09-05T09:53:43Z</time>
      </trkpt>
      <trkpt lat="43.35964" lon="6.69415">
        <ele>205</ele>
        <time>2017-09-05T09:55:43Z</time>
      </trkpt>
      <trkpt lat="43.35895" lon="6.69403">
        <ele>196</ele>
        <time>2017-09-05T09:57:43Z</time>
      </trkpt>
      <trkpt lat="43.35856" lon="6.69444">
        <ele>204</ele>
        <time>2017-09-05T09:59:43Z</time>
      </trkpt>
      <trkpt lat="43.35827" lon="6.69485">
        <ele>192</ele>
        <time>2017-09-05T10:01:43Z</time>
      </trkpt>
      <trkpt lat="43.35813" lon="6.69499">
        <ele>192</ele>
        <time>2017-09-05T10:03:43Z</time>
      </trkpt>
      <trkpt lat="43.35794" lon="6.695">
        <ele>192</ele>
        <time>2017-09-05T10:05:43Z</time>
      </trkpt>
      <trkpt lat="43.35797" lon="6.69539">
        <ele>192</ele>
        <time>2017-09-05T10:07:43Z</time>
      </trkpt>
      <trkpt lat="43.3579" lon="6.69574">
        <ele>204</ele>
        <time>2017-09-05T10:09:43Z</time>
      </trkpt>
      <trkpt lat="43.35777" lon="6.69611">
        <ele>204</ele>
        <time>2017-09-05T10:11:43Z</time>
      </trkpt>
      <trkpt lat="43.35762" lon="6.69649">
        <ele>196</ele>
        <time>2017-09-05T10:13:43Z</time>
      </trkpt>
      <trkpt lat="43.35759" lon="6.6969">
        <ele>196</ele>
        <time>2017-09-05T10:15:43Z</time>
      </trkpt>
      <trkpt lat="43.3575" lon="6.69724">
        <ele>180</ele>
        <time>2017-09-05T10:17:43Z</time>
      </trkpt>
      <trkpt lat="43.35732" lon="6.69722">
        <ele>180</ele>
        <time>2017-09-05T10:19:43Z</time>
      </trkpt>
      <trkpt lat="43.35714" lon="6.69718">
        <ele>180</ele>
        <time>2017-09-05T10:21:43Z</time>
      </trkpt>
      <trkpt lat="43.3569" lon="6.69743">
        <ele>198</ele>
        <time>2017-09-05T10:23:43Z</time>
      </trkpt>
      <trkpt lat="43.35665" lon="6.69782">
        <ele>198</ele>
        <time>2017-09-05T10:25:43Z</time>
      </trkpt>
      <trkpt lat="43.35643" lon="6.69835">
        <ele>181</ele>
        <time>2017-09-05T10:27:43Z</time>
      </trkpt>
      <trkpt lat="43.35622" lon="6.6988">
        <ele>180</ele>
        <time>2017-09-05T10:29:43Z</time>
      </trkpt>
      <trkpt lat="43.35602" lon="6.69921">
        <ele>180</ele>
        <time>2017-09-05T10:31:43Z</time>
      </trkpt>
      <trkpt lat="43.3559" lon="6.69964">
        <ele>175</ele>
        <time>2017-09-05T10:33:43Z</time>
      </trkpt>
      <trkpt lat="43.35584" lon="6.70001">
        <ele>175</ele>
        <time>2017-09-05T10:35:43Z</time>
      </trkpt>
      <trkpt lat="43.3557" lon="6.70043">
        <ele>177</ele>
        <time>2017-09-05T10:37:43Z</time>
      </trkpt>
      <trkpt lat="43.3557" lon="6.70086">
        <ele>177</ele>
        <time>2017-09-05T10:39:43Z</time>
      </trkpt>
      <trkpt lat="43.35589" lon="6.70119">
        <ele>177</ele>
        <time>2017-09-05T10:41:43Z</time>
      </trkpt>
      <trkpt lat="43.35614" lon="6.70174">
        <ele>183</ele>
        <time>2017-09-05T10:43:43Z</time>
      </trkpt>
      <trkpt lat="43.35636" lon="6.70236">
        <ele>165</ele>
        <time>2017-09-05T10:45:43Z</time>
      </trkpt>
      <trkpt lat="43.35655" lon="6.70288">
        <ele>165</ele>
        <time>2017-09-05T10:47:43Z</time>
      </trkpt>
      <trkpt lat="43.35691" lon="6.70358">
        <ele>171</ele>
        <time>2017-09-05T10:49:43Z</time>
      </trkpt>
      <trkpt lat="43.35695" lon="6.70415">
        <ele>174</ele>
        <time>2017-09-05T10:51:43Z</time>
      </trkpt>
      <trkpt lat="43.35714" lon="6.70454">
        <ele>147</ele>
        <time>2017-09-05T10:53:43Z</time>
      </trkpt>
      <trkpt lat="43.35748" lon="6.70502">
        <ele>159</ele>
        <time>2017-09-05T10:55:43Z</time>
      </trkpt>
      <trkpt lat="43.35777" lon="6.70497">
        <ele>159</ele>
        <time>2017-09-05T10:57:43Z</time>
      </trkpt>
      <trkpt lat="43.35805" lon="6.70512">
        <ele>137</ele>
        <time>2017-09-05T10:59:43Z</time>
      </trkpt>
      <trkpt lat="43.35839" lon="6.70543">
        <ele>141</ele>
        <time>2017-09-05T11:01:43Z</time>
      </trkpt>
      <trkpt lat="43.35866" lon="6.70566">
        <ele>141</ele>
        <time>2017-09-05T11:03:43Z</time>
      </trkpt>
      <trkpt lat="43.35895" lon="6.70573">
        <ele>124</ele>
        <time>2017-09-05T11:05:43Z</time>
      </trkpt>
      <trkpt lat="43.35916" lon="6.70595">
        <ele>124</ele>
        <time>2017-09-05T11:07:43Z</time>
      </trkpt>
      <trkpt lat="43.35931" lon="6.70586">
        <ele>124</ele>
        <time>2017-09-05T11:09:43Z</time>
      </trkpt>
      <trkpt lat="43.3595" lon="6.7058">
        <ele>124</ele>
        <time>2017-09-05T11:11:43Z</time>
      </trkpt>
      <trkpt lat="43.35966" lon="6.706">
        <ele>110</ele>
        <time>2017-09-05T11:13:43Z</time>
      </trkpt>
      <trkpt lat="43.35961" lon="6.70578">
        <ele>110</ele>
        <time>2017-09-05T11:15:43Z</time>
      </trkpt>
      <trkpt lat="43.35947" lon="6.70567">
        <ele>124</ele>
        <time>2017-09-05T11:17:43Z</time>
      </trkpt>
      <trkpt lat="43.35918" lon="6.70548">
        <ele>124</ele>
        <time>2017-09-05T11:19:43Z</time>
      </trkpt>
      <trkpt lat="43.35895" lon="6.70525">
        <ele>118</ele>
        <time>2017-09-05T11:21:43Z</time>
      </trkpt>
      <trkpt lat="43.35866" lon="6.70517">
        <ele>137</ele>
        <time>2017-09-05T11:23:43Z</time>
      </trkpt>
      <trkpt lat="43.35843" lon="6.70494">
        <ele>137</ele>
        <time>2017-09-05T11:25:43Z</time>
      </trkpt>
      <trkpt lat="43.35819" lon="6.70471">
        <ele>137</ele>
        <time>2017-09-05T11:27:43Z</time>
      </trkpt>
      <trkpt lat="43.35791" lon="6.70449">
        <ele>147</ele>
        <time>2017-09-05T11:29:43Z</time>
      </trkpt>
      <trkpt lat="43.35776" lon="6.7044">
        <ele>147</ele>
        <time>2017-09-05T11:31:43Z</time>
      </trkpt>
      <trkpt lat="43.35758" lon="6.70442">
        <ele>147</ele>
        <time>2017-09-05T11:33:43Z</time>
      </trkpt>
      <trkpt lat="43.35738" lon="6.70406">
        <ele>147</ele>
        <time>2017-09-05T11:35:43Z</time>
      </trkpt>
      <trkpt lat="43.35738" lon="6.70384">
        <ele>147</ele>
        <time>2017-09-05T11:37:43Z</time>
      </trkpt>
      <trkpt lat="43.35746" lon="6.70357">
        <ele>144</ele>
        <time>2017-09-05T11:39:43Z</time>
      </trkpt>
      <trkpt lat="43.35745" lon="6.70325">
        <ele>144</ele>
        <time>2017-09-05T11:41:43Z</time>
      </trkpt>
      <trkpt lat="43.35723" lon="6.70288">
        <ele>139</ele>
        <time>2017-09-05T11:43:43Z</time>
      </trkpt>
      <trkpt lat="43.35688" lon="6.70258">
        <ele>165</ele>
        <time>2017-09-05T11:45:43Z</time>
      </trkpt>
      <trkpt lat="43.35677" lon="6.70212">
        <ele>165</ele>
        <time>2017-09-05T11:47:43Z</time>
      </trkpt>
      <trkpt lat="43.35676" lon="6.70146">
        <ele>160</ele>
        <time>2017-09-05T11:49:43Z</time>
      </trkpt>
      <trkpt lat="43.35671" lon="6.70113">
        <ele>154</ele>
        <time>2017-09-05T11:51:43Z</time>
      </trkpt>
      <trkpt lat="43.35635" lon="6.70058">
        <ele>154</ele>
        <time>2017-09-05T11:53:43Z</time>
      </trkpt>
      <trkpt lat="43.35651" lon="6.70023">
        <ele>158</ele>
        <time>2017-09-05T11:55:43Z</time>
      </trkpt>
      <trkpt lat="43.35678" lon="6.69981">
        <ele>158</ele>
        <time>2017-09-05T11:57:43Z</time>
      </trkpt>
      <trkpt lat="43.35681" lon="6.69927">
        <ele>169</ele>
        <time>2017-09-05T11:59:43Z</time>
      </trkpt>
      <trkpt lat="43.357" lon="6.69898">
        <ele>169</ele>
        <time>2017-09-05T12:01:43Z</time>
      </trkpt>
      <trkpt lat="43.3573" lon="6.69885">
        <ele>140</ele>
        <time>2017-09-05T12:03:43Z</time>
      </trkpt>
      <trkpt lat="43.35746" lon="6.69836">
        <ele>160</ele>
        <time>2017-09-05T12:05:43Z</time>
      </trkpt>
      <trkpt lat="43.3577" lon="6.69835">
        <ele>160</ele>
        <time>2017-09-05T12:07:43Z</time>
      </trkpt>
      <trkpt lat="43.35795" lon="6.6984">
        <ele>146</ele>
        <time>2017-09-05T12:09:43Z</time>
      </trkpt>
      <trkpt lat="43.35833" lon="6.6987">
        <ele>146</ele>
        <time>2017-09-05T12:11:43Z</time>
      </trkpt>
      <trkpt lat="43.35857" lon="6.69887">
        <ele>127</ele>
        <time>2017-09-05T12:13:43Z</time>
      </trkpt>
      <trkpt lat="43.35872" lon="6.69879">
        <ele>127</ele>
        <time>2017-09-05T12:15:43Z</time>
      </trkpt>
      <trkpt lat="43.3588" lon="6.69849">
        <ele>120</ele>
        <time>2017-09-05T12:17:43Z</time>
      </trkpt>
      <trkpt lat="43.35881" lon="6.69796">
        <ele>120</ele>
        <time>2017-09-05T12:19:43Z</time>
      </trkpt>
      <trkpt lat="43.35885" lon="6.69756">
        <ele>121</ele>
        <time>2017-09-05T12:21:43Z</time>
      </trkpt>
      <trkpt lat="43.35879" lon="6.69695">
        <ele>131</ele>
        <time>2017-09-05T12:23:43Z</time>
      </trkpt>
      <trkpt lat="43.35885" lon="6.69684">
        <ele>131</ele>
        <time>2017-09-05T12:25:43Z</time>
      </trkpt>
      <trkpt lat="43.35908" lon="6.69686">
        <ele>131</ele>
        <time>2017-09-05T12:27:43Z</time>
      </trkpt>
      <trkpt lat="43.35923" lon="6.69684">
        <ele>131</ele>
        <time>2017-09-05T12:29:43Z</time>
      </trkpt>
      <trkpt lat="43.35932" lon="6.69659">
        <ele>131</ele>
        <time>2017-09-05T12:31:43Z</time>
      </trkpt>
      <trkpt lat="43.35939" lon="6.69644">
        <ele>131</ele>
        <time>2017-09-05T12:33:43Z</time>
      </trkpt>
      <trkpt lat="43.35948" lon="6.69649">
        <ele>131</ele>
        <time>2017-09-05T12:35:43Z</time>
      </trkpt>
      <trkpt lat="43.3595" lon="6.69684">
        <ele>131</ele>
        <time>2017-09-05T12:37:43Z</time>
      </trkpt>
      <trkpt lat="43.35954" lon="6.69716">
        <ele>121</ele>
        <time>2017-09-05T12:39:43Z</time>
      </trkpt>
      <trkpt lat="43.35969" lon="6.69748">
        <ele>125</ele>
        <time>2017-09-05T12:41:43Z</time>
      </trkpt>
      <trkpt lat="43.35974" lon="6.6978">
        <ele>125</ele>
        <time>2017-09-05T12:43:43Z</time>
      </trkpt>
      <trkpt lat="43.35982" lon="6.69803">
        <ele>110</ele>
        <time>2017-09-05T12:45:43Z</time>
      </trkpt>
      <trkpt lat="43.35998" lon="6.69823">
        <ele>110</ele>
        <time>2017-09-05T12:47:43Z</time>
      </trkpt>
      <trkpt lat="43.36021" lon="6.69866">
        <ele>110</ele>
        <time>2017-09-05T12:49:43Z</time>
      </trkpt>
      <trkpt lat="43.36043" lon="6.69923">
        <ele>117</ele>
        <time>2017-09-05T12:51:43Z</time>
      </trkpt>
      <trkpt lat="43.36064" lon="6.70005">
        <ele>102</ele>
        <time>2017-09-05T12:53:43Z</time>
      </trkpt>
      <trkpt lat="43.36086" lon="6.70068">
        <ele>89</ele>
        <time>2017-09-05T12:55:43Z</time>
      </trkpt>
      <trkpt lat="43.36108" lon="6.70123">
        <ele>89</ele>
        <time>2017-09-05T12:57:43Z</time>
      </trkpt>
      <trkpt lat="43.36131" lon="6.70155">
        <ele>82</ele>
        <time>2017-09-05T12:59:43Z</time>
      </trkpt>
      <trkpt lat="43.36158" lon="6.70163">
        <ele>82</ele>
        <time>2017-09-05T13:01:43Z</time>
      </trkpt>
      <trkpt lat="43.36186" lon="6.70146">
        <ele>82</ele>
        <time>2017-09-05T13:03:43Z</time>
      </trkpt>
      <trkpt lat="43.36208" lon="6.70166">
        <ele>82</ele>
        <time>2017-09-05T13:05:43Z</time>
      </trkpt>
      <trkpt lat="43.36228" lon="6.70217">
        <ele>72</ele>
        <time>2017-09-05T13:07:43Z</time>
      </trkpt>
      <trkpt lat="43.36246" lon="6.70271">
        <ele>72</ele>
        <time>2017-09-05T13:09:43Z</time>
      </trkpt>
      <trkpt lat="43.36264" lon="6.70306">
        <ele>58</ele>
        <time>2017-09-05T13:11:43Z</time>
      </trkpt>
      <trkpt lat="43.36292" lon="6.70304">
        <ele>64</ele>
        <time>2017-09-05T13:13:43Z</time>
      </trkpt>
      <trkpt lat="43.3631" lon="6.70282">
        <ele>76</ele>
        <time>2017-09-05T13:15:43Z</time>
      </trkpt>
      <trkpt lat="43.36335" lon="6.70304">
        <ele>64</ele>
        <time>2017-09-05T13:17:43Z</time>
      </trkpt>
      <trkpt lat="43.36336" lon="6.70369">
        <ele>64</ele>
        <time>2017-09-05T13:19:43Z</time>
      </trkpt>
      <trkpt lat="43.36331" lon="6.70424">
        <ele>54</ele>
        <time>2017-09-05T13:21:43Z</time>
      </trkpt>
      <trkpt lat="43.3633" lon="6.7049">
        <ele>43</ele>
        <time>2017-09-05T13:23:43Z</time>
      </trkpt>
      <trkpt lat="43.36356" lon="6.70512">
        <ele>43</ele>
        <time>2017-09-05T13:25:43Z</time>
      </trkpt>
      <trkpt lat="43.36391" lon="6.7051">
        <ele>45</ele>
        <time>2017-09-05T13:27:43Z</time>
      </trkpt>
      <trkpt lat="43.36427" lon="6.7052">
        <ele>45</ele>
        <time>2017-09-05T13:29:43Z</time>
      </trkpt>
      <trkpt lat="43.36464" lon="6.70509">
        <ele>35</ele>
        <time>2017-09-05T13:31:43Z</time>
      </trkpt>
      <trkpt lat="43.36483" lon="6.70477">
        <ele>35</ele>
        <time>2017-09-05T13:33:43Z</time>
      </trkpt>
      <trkpt lat="43.36502" lon="6.70494">
        <ele>35</ele>
        <time>2017-09-05T13:35:43Z</time>
      </trkpt>
      <trkpt lat="43.36517" lon="6.70497">
        <ele>35</ele>
        <time>2017-09-05T13:37:43Z</time>
      </trkpt>
      <trkpt lat="43.36544" lon="6.70509">
        <ele>32</ele>
        <time>2017-09-05T13:39:43Z</time>
      </trkpt>
      <trkpt lat="43.36568" lon="6.70499">
        <ele>32</ele>
        <time>2017-09-05T13:41:43Z</time>
      </trkpt>
      <trkpt lat="43.36564" lon="6.70538">
        <ele>32</ele>
        <time>2017-09-05T13:43:43Z</time>
      </trkpt>
      <trkpt lat="43.36565" lon="6.70563">
        <ele>25</ele>
        <time>2017-09-05T13:45:43Z</time>
      </trkpt>
      <trkpt lat="43.36574" lon="6.70596">
        <ele>25</ele>
        <time>2017-09-05T13:47:43Z</time>
      </trkpt>
      <trkpt lat="43.36594" lon="6.70622">
        <ele>25</ele>
        <time>2017-09-05T13:49:43Z</time>
      </trkpt>
      <trkpt lat="43.36609" lon="6.70626">
        <ele>20</ele>
        <time>2017-09-05T13:51:43Z</time>
      </trkpt>
      <trkpt lat="43.36632" lon="6.70672">
        <ele>23</ele>
        <time>2017-09-05T13:53:43Z</time>
      </trkpt>
      <trkpt lat="43.36661" lon="6.70663">
        <ele>23</ele>
        <time>2017-09-05T13:55:43Z</time>
      </trkpt>
      <trkpt lat="43.36691" lon="6.70661">
        <ele>23</ele>
        <time>2017-09-05T13:57:43Z</time>
      </trkpt>
      <trkpt lat="43.36713" lon="6.70707">
        <ele>16</ele>
        <time>2017-09-05T13:59:43Z</time>
      </trkpt>
      <trkpt lat="43.36724" lon="6.707">
        <ele>16</ele>
        <time>2017-09-05T14:01:43Z</time>
      </trkpt>
      <trkpt lat="43.36728" lon="6.70646">
        <ele>16</ele>
        <time>2017-09-05T14:03:43Z</time>
      </trkpt>
      <trkpt lat="43.3674" lon="6.70629">
        <ele>16</ele>
        <time>2017-09-05T14:05:43Z</time>
      </trkpt>
      <trkpt lat="43.36751" lon="6.70628">
        <ele>16</ele>
        <time>2017-09-05T14:07:43Z</time>
      </trkpt>
      <trkpt lat="43.36771" lon="6.70648">
        <ele>16</ele>
        <time>2017-09-05T14:09:43Z</time>
      </trkpt>
      <trkpt lat="43.36777" lon="6.70643">
        <ele>16</ele>
        <time>2017-09-05T14:11:43Z</time>
      </trkpt>
      <trkpt lat="43.36792" lon="6.70604">
        <ele>14</ele>
        <time>2017-09-05T14:13:43Z</time>
      </trkpt>
      <trkpt lat="43.36791" lon="6.70553">
        <ele>15</ele>
        <time>2017-09-05T14:15:43Z</time>
      </trkpt>
      <trkpt lat="43.36794" lon="6.70459">
        <ele>14</ele>
        <time>2017-09-05T14:17:43Z</time>
      </trkpt>
      <trkpt lat="43.36807" lon="6.70427">
        <ele>14</ele>
        <time>2017-09-05T14:19:43Z</time>
      </trkpt>
      <trkpt lat="43.36848" lon="6.70453">
        <ele>14</ele>
        <time>2017-09-05T14:21:43Z</time>
      </trkpt>
      <trkpt lat="43.36875" lon="6.70501">
        <ele>14</ele>
        <time>2017-09-05T14:23:43Z</time>
      </trkpt>
      <trkpt lat="43.36885" lon="6.70548">
        <ele>30</ele>
        <time>2017-09-05T14:25:43Z</time>
      </trkpt>
      <trkpt lat="43.36893" lon="6.70551">
        <ele>30</ele>
        <time>2017-09-05T14:27:43Z</time>
      </trkpt>
      <trkpt lat="43.36991" lon="6.70498">
        <ele>47</ele>
        <time>2017-09-05T14:29:43Z</time>
      </trkpt>
      <trkpt lat="43.37091" lon="6.70351">
        <ele>55</ele>
        <time>2017-09-05T14:31:43Z</time>
      </trkpt>
      <trkpt lat="43.37127" lon="6.70234">
        <ele>67</ele>
        <time>2017-09-05T14:33:43Z</time>
      </trkpt>
      <trkpt lat="43.37156" lon="6.70189">
        <ele>57</ele>
        <time>2017-09-05T14:35:43Z</time>
      </trkpt>
      <trkpt lat="43.37218" lon="6.70165">
        <ele>73</ele>
        <time>2017-09-05T14:37:43Z</time>
      </trkpt>
      <trkpt lat="43.37273" lon="6.70158">
        <ele>73</ele>
        <time>2017-09-05T14:39:43Z</time>
      </trkpt>
      <trkpt lat="43.37304" lon="6.70141">
        <ele>88</ele>
        <time>2017-09-05T14:41:43Z</time>
      </trkpt>
      <trkpt lat="43.37369" lon="6.70008">
        <ele>85</ele>
        <time>2017-09-05T14:43:43Z</time>
      </trkpt>
      <trkpt lat="43.37378" lon="6.70005">
        <ele>107</ele>
        <time>2017-09-05T14:45:43Z</time>
      </trkpt>
      <trkpt lat="43.37395" lon="6.70027">
        <ele>107</ele>
        <time>2017-09-05T14:47:43Z</time>
      </trkpt>
      <trkpt lat="43.37412" lon="6.70034">
        <ele>107</ele>
        <time>2017-09-05T14:49:43Z</time>
      </trkpt>
      <trkpt lat="43.37491" lon="6.69947">
        <ele>114</ele>
        <time>2017-09-05T14:51:43Z</time>
      </trkpt>
      <trkpt lat="43.37504" lon="6.69941">
        <ele>114</ele>
        <time>2017-09-05T14:53:43Z</time>
      </trkpt>
      <trkpt lat="43.37534" lon="6.69991">
        <ele>113</ele>
        <time>2017-09-05T14:55:43Z</time>
      </trkpt>
      <trkpt lat="43.37557" lon="6.70004">
        <ele>119</ele>
        <time>2017-09-05T14:57:43Z</time>
      </trkpt>
      <trkpt lat="43.37584" lon="6.69971">
        <ele>119</ele>
        <time>2017-09-05T14:59:43Z</time>
      </trkpt>
      <trkpt lat="43.37584" lon="6.69883">
        <ele>128</ele>
        <time>2017-09-05T15:01:43Z</time>
      </trkpt>
      <trkpt lat="43.3761" lon="6.69804">
        <ele>129</ele>
        <time>2017-09-05T15:03:43Z</time>
      </trkpt>
      <trkpt lat="43.37623" lon="6.69729">
        <ele>124</ele>
        <time>2017-09-05T15:05:43Z</time>
      </trkpt>
      <trkpt lat="43.37646" lon="6.69662">
        <ele>159</ele>
        <time>2017-09-05T15:07:43Z</time>
      </trkpt>
      <trkpt lat="43.37671" lon="6.69613">
        <ele>160</ele>
        <time>2017-09-05T15:09:43Z</time>
      </trkpt>
      <trkpt lat="43.37651" lon="6.69542">
        <ele>160</ele>
        <time>2017-09-05T15:11:43Z</time>
      </trkpt>
      <trkpt lat="43.37665" lon="6.69465">
        <ele>166</ele>
        <time>2017-09-05T15:13:43Z</time>
      </trkpt>
      <trkpt lat="43.37679" lon="6.69377">
        <ele>167</ele>
        <time>2017-09-05T15:15:43Z</time>
      </trkpt>
      <trkpt lat="43.37701" lon="6.69287">
        <ele>171</ele>
        <time>2017-09-05T15:17:43Z</time>
      </trkpt>
      <trkpt lat="43.37713" lon="6.69211">
        <ele>202</ele>
        <time>2017-09-05T15:19:43Z</time>
      </trkpt>
      <trkpt lat="43.37698" lon="6.69149">
        <ele>190</ele>
        <time>2017-09-05T15:21:43Z</time>
      </trkpt>
      <trkpt lat="43.37651" lon="6.69136">
        <ele>190</ele>
        <time>2017-09-05T15:23:43Z</time>
      </trkpt>
      <trkpt lat="43.37615" lon="6.69141">
        <ele>183</ele>
        <time>2017-09-05T15:25:43Z</time>
      </trkpt>
      <trkpt lat="43.37628" lon="6.69091">
        <ele>206</ele>
        <time>2017-09-05T15:27:43Z</time>
      </trkpt>
      <trkpt lat="43.37654" lon="6.69042">
        <ele>206</ele>
        <time>2017-09-05T15:29:43Z</time>
      </trkpt>
      <trkpt lat="43.37659" lon="6.68969">
        <ele>210</ele>
        <time>2017-09-05T15:31:43Z</time>
      </trkpt>
      <trkpt lat="43.3766" lon="6.68905">
        <ele>215</ele>
        <time>2017-09-05T15:33:43Z</time>
      </trkpt>
      <trkpt lat="43.37651" lon="6.68838">
        <ele>222</ele>
        <time>2017-09-05T15:35:43Z</time>
      </trkpt>
      <trkpt lat="43.37631" lon="6.68754">
        <ele>229</ele>
        <time>2017-09-05T15:37:43Z</time>
      </trkpt>
      <trkpt lat="43.3767" lon="6.68834">
        <ele>222</ele>
        <time>2017-09-05T15:39:43Z</time>
      </trkpt>
      <trkpt lat="43.37701" lon="6.68915">
        <ele>215</ele>
        <time>2017-09-05T15:41:43Z</time>
      </trkpt>
      <trkpt lat="43.37728" lon="6.6898">
        <ele>233</ele>
        <time>2017-09-05T15:43:43Z</time>
      </trkpt>
      <trkpt lat="43.37756" lon="6.6901">
        <ele>233</ele>
        <time>2017-09-05T15:45:43Z</time>
      </trkpt>
      <trkpt lat="43.37784" lon="6.69048">
        <ele>226</ele>
        <time>2017-09-05T15:47:43Z</time>
      </trkpt>
      <trkpt lat="43.37837" lon="6.69092">
        <ele>232</ele>
        <time>2017-09-05T15:49:43Z</time>
      </trkpt>
      <trkpt lat="43.37886" lon="6.69146">
        <ele>239</ele>
        <time>2017-09-05T15:51:43Z</time>
      </trkpt>
      <trkpt lat="43.37933" lon="6.69198">
        <ele>239</ele>
        <time>2017-09-05T15:53:43Z</time>
      </trkpt>
      <trkpt lat="43.37995" lon="6.69207">
        <ele>241</ele>
        <time>2017-09-05T15:55:43Z</time>
      </trkpt>
      <trkpt lat="43.38035" lon="6.69188">
        <ele>241</ele>
        <time>2017-09-05T15:57:43Z</time>
      </trkpt>
      <trkpt lat="43.38059" lon="6.69164">
        <ele>239</ele>
        <time>2017-09-05T15:59:43Z</time>
      </trkpt>
      <trkpt lat="43.38097" lon="6.69155">
        <ele>239</ele>
        <time>2017-09-05T16:01:43Z</time>
      </trkpt>
      <trkpt lat="43.38149" lon="6.69068">
        <ele>228</ele>
        <time>2017-09-05T16:03:43Z</time>
      </trkpt>
      <trkpt lat="43.3823" lon="6.69043">
        <ele>217</ele>
        <time>2017-09-05T16:05:43Z</time>
      </trkpt>
      <trkpt lat="43.38237" lon="6.69089">
        <ele>217</ele>
        <time>2017-09-05T16:07:43Z</time>
      </trkpt>
      <trkpt lat="43.38273" lon="6.69078">
        <ele>217</ele>
        <time>2017-09-05T16:09:43Z</time>
      </trkpt>
      <trkpt lat="43.38326" lon="6.69096">
        <ele>214</ele>
        <time>2017-09-05T16:11:43Z</time>
      </trkpt>
      <trkpt lat="43.38368" lon="6.69181">
        <ele>203</ele>
        <time>2017-09-05T16:13:43Z</time>
      </trkpt>
      <trkpt lat="43.38378" lon="6.69216">
        <ele>187</ele>
        <time>2017-09-05T16:15:43Z</time>
      </trkpt>
      <trkpt lat="43.38389" lon="6.69268">
        <ele>187</ele>
        <time>2017-09-05T16:17:43Z</time>
      </trkpt>
      <trkpt lat="43.384" lon="6.69302">
        <ele>174</ele>
        <time>2017-09-05T16:19:43Z</time>
      </trkpt>
      <trkpt lat="43.38411" lon="6.69343">
        <ele>174</ele>
        <time>2017-09-05T16:21:43Z</time>
      </trkpt>
      <trkpt lat="43.38409" lon="6.69394">
        <ele>164</ele>
        <time>2017-09-05T16:23:43Z</time>
      </trkpt>
      <trkpt lat="43.38396" lon="6.69447">
        <ele>164</ele>
        <time>2017-09-05T16:25:43Z</time>
      </trkpt>
      <trkpt lat="43.38393" lon="6.69497">
        <ele>152</ele>
        <time>2017-09-05T16:27:43Z</time>
      </trkpt>
      <trkpt lat="43.38393" lon="6.69557">
        <ele>145</ele>
        <time>2017-09-05T16:29:43Z</time>
      </trkpt>
      <trkpt lat="43.38393" lon="6.69625">
        <ele>145</ele>
        <time>2017-09-05T16:31:43Z</time>
      </trkpt>
      <trkpt lat="43.38389" lon="6.69666">
        <ele>140</ele>
        <time>2017-09-05T16:33:43Z</time>
      </trkpt>
      <trkpt lat="43.38368" lon="6.69737">
        <ele>125</ele>
        <time>2017-09-05T16:35:43Z</time>
      </trkpt>
      <trkpt lat="43.38348" lon="6.69799">
        <ele>132</ele>
        <time>2017-09-05T16:37:43Z</time>
      </trkpt>
      <trkpt lat="43.38311" lon="6.69851">
        <ele>132</ele>
        <time>2017-09-05T16:39:43Z</time>
      </trkpt>
      <trkpt lat="43.38286" lon="6.699">
        <ele>109</ele>
        <time>2017-09-05T16:41:43Z</time>
      </trkpt>
      <trkpt lat="43.3828" lon="6.69946">
        <ele>109</ele>
        <time>2017-09-05T16:43:43Z</time>
      </trkpt>
      <trkpt lat="43.38283" lon="6.69999">
        <ele>101</ele>
        <time>2017-09-05T16:45:43Z</time>
      </trkpt>
      <trkpt lat="43.38308" lon="6.70038">
        <ele>118</ele>
        <time>2017-09-05T16:47:43Z</time>
      </trkpt>
      <trkpt lat="43.38315" lon="6.70061">
        <ele>99</ele>
        <time>2017-09-05T16:49:43Z</time>
      </trkpt>
      <trkpt lat="43.38282" lon="6.70065">
        <ele>91</ele>
        <time>2017-09-05T16:51:43Z</time>
      </trkpt>
      <trkpt lat="43.38258" lon="6.70065">
        <ele>91</ele>
        <time>2017-09-05T16:53:43Z</time>
      </trkpt>
      <trkpt lat="43.38228" lon="6.70068">
        <ele>91</ele>
        <time>2017-09-05T16:55:43Z</time>
      </trkpt>
      <trkpt lat="43.38196" lon="6.70074">
        <ele>100</ele>
        <time>2017-09-05T16:57:43Z</time>
      </trkpt>
      <trkpt lat="43.38214" lon="6.70111">
        <ele>91</ele>
        <time>2017-09-05T16:59:43Z</time>
      </trkpt>
      <trkpt lat="43.38241" lon="6.70134">
        <ele>98</ele>
        <time>2017-09-05T17:01:43Z</time>
      </trkpt>
      <trkpt lat="43.38271" lon="6.70165">
        <ele>98</ele>
        <time>2017-09-05T17:03:43Z</time>
      </trkpt>
      <trkpt lat="43.38295" lon="6.70191">
        <ele>85</ele>
        <time>2017-09-05T17:05:43Z</time>
      </trkpt>
      <trkpt lat="43.38307" lon="6.70235">
        <ele>91</ele>
        <time>2017-09-05T17:07:43Z</time>
      </trkpt>
      <trkpt lat="43.38312" lon="6.7028">
        <ele>91</ele>
        <time>2017-09-05T17:09:43Z</time>
      </trkpt>
      <trkpt lat="43.3833" lon="6.70305">
        <ele>105</ele>
        <time>2017-09-05T17:11:43Z</time>
      </trkpt>
      <trkpt lat="43.3835" lon="6.70328">
        <ele>105</ele>
        <time>2017-09-05T17:13:43Z</time>
      </trkpt>
      <trkpt lat="43.38365" lon="6.70353">
        <ele>105</ele>
        <time>2017-09-05T17:15:43Z</time>
      </trkpt>
      <trkpt lat="43.38389" lon="6.70364">
        <ele>98</ele>
        <time>2017-09-05T17:17:43Z</time>
      </trkpt>
      <trkpt lat="43.38414" lon="6.70366">
        <ele>98</ele>
        <time>2017-09-05T17:19:43Z</time>
      </trkpt>
      <trkpt lat="43.38438" lon="6.70398">
        <ele>111</ele>
        <time>2017-09-05T17:21:43Z</time>
      </trkpt>
      <trkpt lat="43.38418" lon="6.70427">
        <ele>111</ele>
        <time>2017-09-05T17:23:43Z</time>
      </trkpt>
      <trkpt lat="43.38403" lon="6.70464">
        <ele>114</ele>
        <time>2017-09-05T17:25:43Z</time>
      </trkpt>
      <trkpt lat="43.38386" lon="6.70484">
        <ele>114</ele>
        <time>2017-09-05T17:27:43Z</time>
      </trkpt>
      <trkpt lat="43.38368" lon="6.70499">
        <ele>127</ele>
        <time>2017-09-05T17:29:43Z</time>
      </trkpt>
      <trkpt lat="43.38353" lon="6.70515">
        <ele>127</ele>
        <time>2017-09-05T17:31:43Z</time>
      </trkpt>
      <trkpt lat="43.38348" lon="6.70556">
        <ele>124</ele>
        <time>2017-09-05T17:33:43Z</time>
      </trkpt>
      <trkpt lat="43.38342" lon="6.70585">
        <ele>124</ele>
        <time>2017-09-05T17:35:43Z</time>
      </trkpt>
      <trkpt lat="43.38339" lon="6.70609">
        <ele>124</ele>
        <time>2017-09-05T17:37:43Z</time>
      </trkpt>
      <trkpt lat="43.38359" lon="6.70607">
        <ele>124</ele>
        <time>2017-09-05T17:39:43Z</time>
      </trkpt>
      <trkpt lat="43.38382" lon="6.70595">
        <ele>111</ele>
        <time>2017-09-05T17:41:43Z</time>
      </trkpt>
      <trkpt lat="43.384" lon="6.70578">
        <ele>111</ele>
        <time>2017-09-05T17:43:43Z</time>
      </trkpt>
      <trkpt lat="43.38425" lon="6.706">
        <ele>111</ele>
        <time>2017-09-05T17:45:43Z</time>
      </trkpt>
      <trkpt lat="43.38451" lon="6.70633">
        <ele>104</ele>
        <time>2017-09-05T17:47:43Z</time>
      </trkpt>
      <trkpt lat="43.38471" lon="6.70665">
        <ele>103</ele>
        <time>2017-09-05T17:49:43Z</time>
      </trkpt>
      <trkpt lat="43.38477" lon="6.70711">
        <ele>103</ele>
        <time>2017-09-05T17:51:43Z</time>
      </trkpt>
      <trkpt lat="43.38492" lon="6.7075">
        <ele>103</ele>
        <time>2017-09-05T17:53:43Z</time>
      </trkpt>
      <trkpt lat="43.38509" lon="6.70791">
        <ele>103</ele>
        <time>2017-09-05T17:55:43Z</time>
      </trkpt>
      <trkpt lat="43.38527" lon="6.70819">
        <ele>95</ele>
        <time>2017-09-05T17:57:43Z</time>
      </trkpt>
      <trkpt lat="43.3855" lon="6.70839">
        <ele>108</ele>
        <time>2017-09-05T17:59:43Z</time>
      </trkpt>
      <trkpt lat="43.38569" lon="6.70875">
        <ele>97</ele>
        <time>2017-09-05T18:01:43Z</time>
      </trkpt>
      <trkpt lat="43.38601" lon="6.70883">
        <ele>97</ele>
        <time>2017-09-05T18:03:43Z</time>
      </trkpt>
      <trkpt lat="43.38622" lon="6.70878">
        <ele>97</ele>
        <time>2017-09-05T18:05:43Z</time>
      </trkpt>
      <trkpt lat="43.38655" lon="6.70883">
        <ele>97</ele>
        <time>2017-09-05T18:07:43Z</time>
      </trkpt>
      <trkpt lat="43.3868" lon="6.70875">
        <ele>97</ele>
        <time>2017-09-05T18:09:43Z</time>
      </trkpt>
      <trkpt lat="43.38701" lon="6.70866">
        <ele>106</ele>
        <time>2017-09-05T18:11:43Z</time>
      </trkpt>
      <trkpt lat="43.38732" lon="6.70848">
        <ele>101</ele>
        <time>2017-09-05T18:13:43Z</time>
      </trkpt>
      <trkpt lat="43.3876" lon="6.70835">
        <ele>101</ele>
        <time>2017-09-05T18:15:43Z</time>
      </trkpt>
      <trkpt lat="43.38794" lon="6.70821">
        <ele>93</ele>
        <time>2017-09-05T18:17:43Z</time>
      </trkpt>
      <trkpt lat="43.38832" lon="6.70808">
        <ele>93</ele>
        <time>2017-09-05T18:19:43Z</time>
      </trkpt>
      <trkpt lat="43.38863" lon="6.7079">
        <ele>99</ele>
        <time>2017-09-05T18:21:43Z</time>
      </trkpt>
      <trkpt lat="43.3889" lon="6.70784">
        <ele>91</ele>
        <time>2017-09-05T18:23:43Z</time>
      </trkpt>
      <trkpt lat="43.38902" lon="6.70806">
        <ele>87</ele>
        <time>2017-09-05T18:25:43Z</time>
      </trkpt>
      <trkpt lat="43.38893" lon="6.70845">
        <ele>87</ele>
        <time>2017-09-05T18:27:43Z</time>
      </trkpt>
      <trkpt lat="43.38911" lon="6.70875">
        <ele>81</ele>
        <time>2017-09-05T18:29:43Z</time>
      </trkpt>
      <trkpt lat="43.38936" lon="6.70881">
        <ele>81</ele>
        <time>2017-09-05T18:31:43Z</time>
      </trkpt>
      <trkpt lat="43.38966" lon="6.70868">
        <ele>78</ele>
        <time>2017-09-05T18:33:43Z</time>
      </trkpt>
      <trkpt lat="43.38998" lon="6.7088">
        <ele>77</ele>
        <time>2017-09-05T18:35:43Z</time>
      </trkpt>
      <trkpt lat="43.39027" lon="6.70898">
        <ele>77</ele>
        <time>2017-09-05T18:37:43Z</time>
      </trkpt>
      <trkpt lat="43.3906" lon="6.70917">
        <ele>77</ele>
        <time>2017-09-05T18:39:43Z</time>
      </trkpt>
      <trkpt lat="43.39092" lon="6.70919">
        <ele>77</ele>
        <time>2017-09-05T18:41:43Z</time>
      </trkpt>
      <trkpt lat="43.39125" lon="6.70902">
        <ele>77</ele>
        <time>2017-09-05T18:43:43Z</time>
      </trkpt>
      <trkpt lat="43.39151" lon="6.70888">
        <ele>73</ele>
        <time>2017-09-05T18:45:43Z</time>
      </trkpt>
      <trkpt lat="43.39178" lon="6.70884">
        <ele>73</ele>
        <time>2017-09-05T18:47:43Z</time>
      </trkpt>
      <trkpt lat="43.39196" lon="6.70908">
        <ele>73</ele>
        <time>2017-09-05T18:49:43Z</time>
      </trkpt>
      <trkpt lat="43.3919" lon="6.70938">
        <ele>73</ele>
        <time>2017-09-05T18:51:43Z</time>
      </trkpt>
      <trkpt lat="43.39158" lon="6.70958">
        <ele>73</ele>
        <time>2017-09-05T18:53:43Z</time>
      </trkpt>
      <trkpt lat="43.39131" lon="6.70976">
        <ele>68</ele>
        <time>2017-09-05T18:55:43Z</time>
      </trkpt>
      <trkpt lat="43.39106" lon="6.71005">
        <ele>73</ele>
        <time>2017-09-05T18:57:43Z</time>
      </trkpt>
      <trkpt lat="43.39089" lon="6.7104">
        <ele>73</ele>
        <time>2017-09-05T18:59:43Z</time>
      </trkpt>
      <trkpt lat="43.3907" lon="6.71072">
        <ele>66</ele>
        <time>2017-09-05T19:01:43Z</time>
      </trkpt>
      <trkpt lat="43.3906" lon="6.71094">
        <ele>66</ele>
        <time>2017-09-05T19:03:43Z</time>
      </trkpt>
      <trkpt lat="43.39076" lon="6.7113">
        <ele>61</ele>
        <time>2017-09-05T19:05:43Z</time>
      </trkpt>
      <trkpt lat="43.39078" lon="6.71164">
        <ele>61</ele>
        <time>2017-09-05T19:07:43Z</time>
      </trkpt>
      <trkpt lat="43.39059" lon="6.71175">
        <ele>61</ele>
        <time>2017-09-05T19:09:43Z</time>
      </trkpt>
      <trkpt lat="43.39036" lon="6.71154">
        <ele>55</ele>
        <time>2017-09-05T19:11:43Z</time>
      </trkpt>
      <trkpt lat="43.39016" lon="6.71178">
        <ele>55</ele>
        <time>2017-09-05T19:13:43Z</time>
      </trkpt>
      <trkpt lat="43.39008" lon="6.71202">
        <ele>55</ele>
        <time>2017-09-05T19:15:43Z</time>
      </trkpt>
      <trkpt lat="43.39001" lon="6.71238">
        <ele>48</ele>
        <time>2017-09-05T19:17:43Z</time>
      </trkpt>
      <trkpt lat="43.39009" lon="6.71269">
        <ele>48</ele>
        <time>2017-09-05T19:19:43Z</time>
      </trkpt>
      <trkpt lat="43.39029" lon="6.71313">
        <ele>44</ele>
        <time>2017-09-05T19:21:43Z</time>
      </trkpt>
      <trkpt lat="43.39013" lon="6.7137">
        <ele>44</ele>
        <time>2017-09-05T19:23:43Z</time>
      </trkpt>
      <trkpt lat="43.38998" lon="6.71415">
        <ele>40</ele>
        <time>2017-09-05T19:25:43Z</time>
      </trkpt>
      <trkpt lat="43.38976" lon="6.71424">
        <ele>40</ele>
        <time>2017-09-05T19:27:43Z</time>
      </trkpt>
      <trkpt lat="43.38949" lon="6.71412">
        <ele>39</ele>
        <time>2017-09-05T19:29:43Z</time>
      </trkpt>
      <trkpt lat="43.38931" lon="6.71421">
        <ele>39</ele>
        <time>2017-09-05T19:31:43Z</time>
      </trkpt>
      <trkpt lat="43.38919" lon="6.71452">
        <ele>39</ele>
        <time>2017-09-05T19:33:43Z</time>
      </trkpt>
      <trkpt lat="43.38898" lon="6.71512">
        <ele>34</ele>
        <time>2017-09-05T19:35:43Z</time>
      </trkpt>
      <trkpt lat="43.38877" lon="6.71566">
        <ele>31</ele>
        <time>2017-09-05T19:37:43Z</time>
      </trkpt>
      <trkpt lat="43.38866" lon="6.71599">
        <ele>38</ele>
        <time>2017-09-05T19:39:43Z</time>
      </trkpt>
      <trkpt lat="43.38851" lon="6.71632">
        <ele>32</ele>
        <time>2017-09-05T19:41:43Z</time>
      </trkpt>
      <trkpt lat="43.38839" lon="6.71672">
        <ele>32</ele>
        <time>2017-09-05T19:43:43Z</time>
      </trkpt>
      <trkpt lat="43.3882" lon="6.71726">
        <ele>30</ele>
        <time>2017-09-05T19:45:43Z</time>
      </trkpt>
      <trkpt lat="43.38802" lon="6.71768">
        <ele>30</ele>
        <time>2017-09-05T19:47:43Z</time>
      </trkpt>
      <trkpt lat="43.38786" lon="6.71821">
        <ele>30</ele>
        <time>2017-09-05T19:49:43Z</time>
      </trkpt>
      <trkpt lat="43.38765" lon="6.71881">
        <ele>27</ele>
        <time>2017-09-05T19:51:43Z</time>
      </trkpt>
      <trkpt lat="43.38746" lon="6.71925">
        <ele>27</ele>
        <time>2017-09-05T19:53:43Z</time>
      </trkpt>
      <trkpt lat="43.38725" lon="6.71993">
        <ele>25</ele>
        <time>2017-09-05T19:55:43Z</time>
      </trkpt>
      <trkpt lat="43.38708" lon="6.72041">
        <ele>26</ele>
        <time>2017-09-05T19:57:43Z</time>
      </trkpt>
      <trkpt lat="43.38687" lon="6.72099">
        <ele>23</ele>
        <time>2017-09-05T19:59:43Z</time>
      </trkpt>
      <trkpt lat="43.38671" lon="6.72139">
        <ele>21</ele>
        <time>2017-09-05T20:01:43Z</time>
      </trkpt>
      <trkpt lat="43.38651" lon="6.72197">
        <ele>21</ele>
        <time>2017-09-05T20:03:43Z</time>
      </trkpt>
      <trkpt lat="43.38632" lon="6.72243">
        <ele>21</ele>
        <time>2017-09-05T20:05:43Z</time>
      </trkpt>
      <trkpt lat="43.38603" lon="6.72328">
        <ele>17</ele>
        <time>2017-09-05T20:07:43Z</time>
      </trkpt>
      <trkpt lat="43.38577" lon="6.72397">
        <ele>16</ele>
        <time>2017-09-05T20:09:43Z</time>
      </trkpt>
      <trkpt lat="43.38563" lon="6.72439">
        <ele>16</ele>
        <time>2017-09-05T20:11:43Z</time>
      </trkpt>
      <trkpt lat="43.38548" lon="6.72482">
        <ele>14</ele>
        <time>2017-09-05T20:13:43Z</time>
      </trkpt>
      <trkpt lat="43.38532" lon="6.72527">
        <ele>11</ele>
        <time>2017-09-05T20:15:43Z</time>
      </trkpt>
      <trkpt lat="43.3856" lon="6.7255">
        <ele>13</ele>
        <time>2017-09-05T20:17:43Z</time>
      </trkpt>
      <trkpt lat="43.38616" lon="6.72588">
        <ele>13</ele>
        <time>2017-09-05T20:19:43Z</time>
      </trkpt>
      <trkpt lat="43.38666" lon="6.72619">
        <ele>18</ele>
        <time>2017-09-05T20:21:43Z</time>
      </trkpt>
      <trkpt lat="43.38697" lon="6.72638">
        <ele>15</ele>
        <time>2017-09-05T20:23:43Z</time>
      </trkpt>
      <trkpt lat="43.38737" lon="6.72668">
        <ele>19</ele>
        <time>2017-09-05T20:25:43Z</time>
      </trkpt>
      <trkpt lat="43.38777" lon="6.72696">
        <ele>19</ele>
        <time>2017-09-05T20:27:43Z</time>
      </trkpt>
      <trkpt lat="43.38825" lon="6.72727">
        <ele>21</ele>
        <time>2017-09-05T20:29:43Z</time>
      </trkpt>
      <trkpt lat="43.38857" lon="6.7275">
        <ele>21</ele>
        <time>2017-09-05T20:31:43Z</time>
      </trkpt>
      <trkpt lat="43.38886" lon="6.72775">
        <ele>25</ele>
        <time>2017-09-05T20:33:43Z</time>
      </trkpt>
      <trkpt lat="43.38855" lon="6.72868">
        <ele>18</ele>
        <time>2017-09-05T20:35:43Z</time>
      </trkpt>
      <trkpt lat="43.38831" lon="6.72934">
        <ele>14</ele>
        <time>2017-09-05T20:37:43Z</time>
      </trkpt>
      <trkpt lat="43.38814" lon="6.72978">
        <ele>11</ele>
        <time>2017-09-05T20:39:43Z</time>
      </trkpt>
      <trkpt lat="43.388" lon="6.73024">
        <ele>11</ele>
        <time>2017-09-05T20:41:43Z</time>
      </trkpt>
      <trkpt lat="43.38805" lon="6.73038">
        <ele>11</ele>
        <time>2017-09-05T20:43:43Z</time>
      </trkpt>
      <trkpt lat="43.38821" lon="6.73059">
        <ele>1.9</ele>
        <time>2017-09-05T20:45:43Z</time>
      </trkpt>
      <trkpt lat="43.3883" lon="6.7304">
        <ele>11</ele>
        <time>2017-09-05T20:47:43Z</time>
      </trkpt>
      <trkpt lat="43.38838" lon="6.73024">
        <ele>11</ele>
        <time>2017-09-05T20:49:43Z</time>
      </trkpt>
      <trkpt lat="43.38853" lon="6.73033">
        <ele>11</ele>
        <time>2017-09-05T20:51:43Z</time>
      </trkpt>
      <trkpt lat="43.38869" lon="6.73049">
        <ele>5.8</ele>
        <time>2017-09-05T20:53:43Z</time>
      </trkpt>
      <trkpt lat="43.38889" lon="6.7306">
        <ele>6</ele>
        <time>2017-09-05T20:55:43Z</time>
      </trkpt>
      <trkpt lat="43.38903" lon="6.73064">
        <ele>6</ele>
        <time>2017-09-05T20:57:43Z</time>
      </trkpt>
      <trkpt lat="43.38913" lon="6.73068">
        <ele>6</ele>
        <time>2017-09-05T20:59:43Z</time>
      </trkpt>
      <trkpt lat="43.38924" lon="6.73061">
        <ele>6</ele>
        <time>2017-09-05T21:01:43Z</time>
      </trkpt>
      <trkpt lat="43.38931" lon="6.73076">
        <ele>6</ele>
        <time>2017-09-05T21:03:43Z</time>
      </trkpt>
      <trkpt lat="43.38926" lon="6.73097">
        <ele>6</ele>
        <time>2017-09-05T21:05:43Z</time>
      </trkpt>
      <trkpt lat="43.38933" lon="6.73113">
        <ele>6</ele>
        <time>2017-09-05T21:07:43Z</time>
      </trkpt>
      <trkpt lat="43.38945" lon="6.73124">
        <ele>6</ele>
        <time>2017-09-05T21:09:43Z</time>
      </trkpt>
      <trkpt lat="43.38961" lon="6.73151">
        <ele>7</ele>
        <time>2017-09-05T21:11:43Z</time>
      </trkpt>
      <trkpt lat="43.38968" lon="6.7317">
        <ele>7</ele>
        <time>2017-09-05T21:13:43Z</time>
      </trkpt>
      <trkpt lat="43.38976" lon="6.73172">
        <ele>7</ele>
        <time>2017-09-05T21:15:43Z</time>
      </trkpt>
      <trkpt lat="43.38987" lon="6.73177">
        <ele>7</ele>
        <time>2017-09-05T21:17:43Z</time>
      </trkpt>
      <trkpt lat="43.38997" lon="6.73192">
        <ele>7</ele>
        <time>2017-09-05T21:19:43Z</time>
      </trkpt>
      <trkpt lat="43.39011" lon="6.73203">
        <ele>7</ele>
        <time>2017-09-05T21:21:43Z</time>
      </trkpt>
      <trkpt lat="43.39026" lon="6.73202">
        <ele>7</ele>
        <time>2017-09-05T21:23:43Z</time>
      </trkpt>
      <trkpt lat="43.39035" lon="6.73191">
        <ele>7</ele>
        <time>2017-09-05T21:25:43Z</time>
      </trkpt>
      <trkpt lat="43.39044" lon="6.73182">
        <ele>4</ele>
        <time>2017-09-05T21:27:43Z</time>
      </trkpt>
      <trkpt lat="43.39057" lon="6.73186">
        <ele>4</ele>
        <time>2017-09-05T21:29:43Z</time>
      </trkpt>
      <trkpt lat="43.39066" lon="6.73193">
        <ele>4</ele>
        <time>2017-09-05T21:31:43Z</time>
      </trkpt>
      <trkpt lat="43.39087" lon="6.73189">
        <ele>4</ele>
        <time>2017-09-05T21:33:43Z</time>
      </trkpt>
      <trkpt lat="43.39101" lon="6.73176">
        <ele>4</ele>
        <time>2017-09-05T21:35:43Z</time>
      </trkpt>
      <trkpt lat="43.39113" lon="6.7316">
        <ele>4</ele>
        <time>2017-09-05T21:37:43Z</time>
      </trkpt>
      <trkpt lat="43.39114" lon="6.73138">
        <ele>4</ele>
        <time>2017-09-05T21:39:43Z</time>
      </trkpt>
      <trkpt lat="43.39115" lon="6.73108">
        <ele>10</ele>
        <time>2017-09-05T21:41:43Z</time>
      </trkpt>
      <trkpt lat="43.39117" lon="6.73084">
        <ele>10</ele>
        <time>2017-09-05T21:43:43Z</time>
      </trkpt>
      <trkpt lat="43.39122" lon="6.73066">
        <ele>10</ele>
        <time>2017-09-05T21:45:43Z</time>
      </trkpt>
      <trkpt lat="43.39124" lon="6.73053">
        <ele>10</ele>
        <time>2017-09-05T21:47:43Z</time>
      </trkpt>
      <trkpt lat="43.39136" lon="6.73038">
        <ele>3</ele>
        <time>2017-09-05T21:49:43Z</time>
      </trkpt>
      <trkpt lat="43.39147" lon="6.73006">
        <ele>3</ele>
        <time>2017-09-05T21:51:43Z</time>
      </trkpt>
      <trkpt lat="43.39161" lon="6.72973">
        <ele>3</ele>
        <time>2017-09-05T21:53:43Z</time>
      </trkpt>
      <trkpt lat="43.39185" lon="6.72944">
        <ele>8</ele>
        <time>2017-09-05T21:55:43Z</time>
      </trkpt>
      <trkpt lat="43.392" lon="6.72931">
        <ele>8</ele>
        <time>2017-09-05T21:57:43Z</time>
      </trkpt>
      <trkpt lat="43.39217" lon="6.7293">
        <ele>1.8</ele>
        <time>2017-09-05T21:59:43Z</time>
      </trkpt>
      <trkpt lat="43.39233" lon="6.72914">
        <ele>2</ele>
        <time>2017-09-05T22:01:43Z</time>
      </trkpt>
      <trkpt lat="43.39244" lon="6.72886">
        <ele>1.2</ele>
        <time>2017-09-05T22:03:43Z</time>
      </trkpt>
      <trkpt lat="43.39235" lon="6.7286">
        <ele>7</ele>
        <time>2017-09-05T22:05:43Z</time>
      </trkpt>
      <trkpt lat="43.39225" lon="6.72839">
        <ele>7</ele>
        <time>2017-09-05T22:07:43Z</time>
      </trkpt>
      <trkpt lat="43.39216" lon="6.72823">
        <ele>7</ele>
        <time>2017-09-05T22:09:43Z</time>
      </trkpt>
      <trkpt lat="43.39215" lon="6.72808">
        <ele>7</ele>
        <time>2017-09-05T22:11:43Z</time>
      </trkpt>
      <trkpt lat="43.39218" lon="6.72779">
        <ele>9</ele>
        <time>2017-09-05T22:13:43Z</time>
      </trkpt>
      <trkpt lat="43.39205" lon="6.7274">
        <ele>15</ele>
        <time>2017-09-05T22:15:43Z</time>
      </trkpt>
      <trkpt lat="43.39189" lon="6.72721">
        <ele>15</ele>
        <time>2017-09-05T22:17:43Z</time>
      </trkpt>
      <trkpt lat="43.39175" lon="6.72713">
        <ele>15</ele>
        <time>2017-09-05T22:19:43Z</time>
      </trkpt>
      <trkpt lat="43.39153" lon="6.7271">
        <ele>15</ele>
        <time>2017-09-05T22:21:43Z</time>
      </trkpt>
      <trkpt lat="43.39145" lon="6.72707">
        <ele>14</ele>
        <time>2017-09-05T22:23:43Z</time>
      </trkpt>
      <trkpt lat="43.39147" lon="6.72686">
        <ele>14</ele>
        <time>2017-09-05T22:25:43Z</time>
      </trkpt>
      <trkpt lat="43.39151" lon="6.72653">
        <ele>14</ele>
        <time>2017-09-05T22:27:43Z</time>
      </trkpt>
      <trkpt lat="43.39154" lon="6.72636">
        <ele>14</ele>
        <time>2017-09-05T22:29:43Z</time>
      </trkpt>
      <trkpt lat="43.39141" lon="6.72606">
        <ele>12</ele>
        <time>2017-09-05T22:31:43Z</time>
      </trkpt>
      <trkpt lat="43.39126" lon="6.72581">
        <ele>12</ele>
        <time>2017-09-05T22:33:43Z</time>
      </trkpt>
      <trkpt lat="43.39118" lon="6.72555">
        <ele>20</ele>
        <time>2017-09-05T22:35:43Z</time>
      </trkpt>
      <trkpt lat="43.39111" lon="6.72527">
        <ele>20</ele>
        <time>2017-09-05T22:37:43Z</time>
      </trkpt>
      <trkpt lat="43.39105" lon="6.72489">
        <ele>20</ele>
        <time>2017-09-05T22:39:43Z</time>
      </trkpt>
      <trkpt lat="43.39102" lon="6.72466">
        <ele>20</ele>
        <time>2017-09-05T22:41:43Z</time>
      </trkpt>
      <trkpt lat="43.39093" lon="6.72428">
        <ele>17</ele>
        <time>2017-09-05T22:43:43Z</time>
      </trkpt>
      <trkpt lat="43.39087" lon="6.72384">
        <ele>17</ele>
        <time>2017-09-05T22:45:43Z</time>
      </trkpt>
      <trkpt lat="43.39078" lon="6.72335">
        <ele>18</ele>
        <time>2017-09-05T22:47:43Z</time>
      </trkpt>
      <trkpt lat="43.39073" lon="6.72305">
        <ele>18</ele>
        <time>2017-09-05T22:49:43Z</time>
      </trkpt>
      <trkpt lat="43.39063" lon="6.72259">
        <ele>16</ele>
        <time>2017-09-05T22:51:43Z</time>
      </trkpt>
      <trkpt lat="43.39058" lon="6.72233">
        <ele>16</ele>
        <time>2017-09-05T22:53:43Z</time>
      </trkpt>
      <trkpt lat="43.39047" lon="6.72218">
        <ele>16</ele>
        <time>2017-09-05T22:55:43Z</time>
      </trkpt>
      <trkpt lat="43.3902" lon="6.72199">
        <ele>16</ele>
        <time>2017-09-05T22:57:43Z</time>
      </trkpt>
      <trkpt lat="43.38991" lon="6.72187">
        <ele>16</ele>
        <time>2017-09-05T22:59:43Z</time>
      </trkpt>
      <trkpt lat="43.38963" lon="6.72179">
        <ele>16</ele>
        <time>2017-09-05T23:01:43Z</time>
      </trkpt>
      <trkpt lat="43.38923" lon="6.72173">
        <ele>19</ele>
        <time>2017-09-05T23:03:43Z</time>
      </trkpt>
      <trkpt lat="43.3889" lon="6.72185">
        <ele>19</ele>
        <time>2017-09-05T23:05:43Z</time>
      </trkpt>
      <trkpt lat="43.38864" lon="6.7219">
        <ele>21</ele>
        <time>2017-09-05T23:07:43Z</time>
      </trkpt>
      <trkpt lat="43.38844" lon="6.72194">
        <ele>21</ele>
        <time>2017-09-05T23:09:43Z</time>
      </trkpt>
      <trkpt lat="43.38814" lon="6.72186">
        <ele>21</ele>
        <time>2017-09-05T23:11:43Z</time>
      </trkpt>
      <trkpt lat="43.38764" lon="6.72192">
        <ele>22</ele>
        <time>2017-09-05T23:13:43Z</time>
      </trkpt>
      <trkpt lat="43.38712" lon="6.72202">
        <ele>22</ele>
        <time>2017-09-05T23:15:43Z</time>
      </trkpt>
      <trkpt lat="43.38669" lon="6.722">
        <ele>21</ele>
        <time>2017-09-05T23:17:43Z</time>
      </trkpt>
      <trkpt lat="43.38635" lon="6.72209">
        <ele>21</ele>
        <time>2017-09-05T23:19:43Z</time>
      </trkpt>
    </trkseg>
  </trk>
</gpx>